<?xml version="1.0" encoding="UTF-8" standalone="no" ?>
<gpx xmlns="http://www.topografix.com/GPX/1/1" xmlns:xsi="http://www.w3.org/2001/XMLSchema-instance" xsi:schemaLocation="http://www.topografix.com/GPX/1/1 http://www.topografix.com/GPX/1/1/gpx.xsd" version="1.1" creator="VisuGPX - https://www.visugpx.com">
  <metadata>
    <name>Campbieil en boucle</name>
  </metadata>
  <trk>
    <name><![CDATA[Campbieil en boucle]]></name>
    <trkseg>
      <trkpt lat="42.81547" lon="0.14656">
        <ele>2052</ele>
        <time>2023-06-08T02:58:02Z</time>
      </trkpt>
      <trkpt lat="42.81548" lon="0.14657">
        <ele>2052</ele>
        <time>2023-06-08T02:58:03Z</time>
      </trkpt>
      <trkpt lat="42.8155" lon="0.14661">
        <ele>2055</ele>
        <time>2023-06-08T02:58:12Z</time>
      </trkpt>
      <trkpt lat="42.81552" lon="0.14661">
        <ele>2058</ele>
        <time>2023-06-08T02:58:16Z</time>
      </trkpt>
      <trkpt lat="42.81552" lon="0.14661">
        <ele>2062</ele>
        <time>2023-06-08T02:58:20Z</time>
      </trkpt>
      <trkpt lat="42.81553" lon="0.1466">
        <ele>2065</ele>
        <time>2023-06-08T02:58:25Z</time>
      </trkpt>
      <trkpt lat="42.81553" lon="0.14659">
        <ele>2067</ele>
        <time>2023-06-08T02:58:29Z</time>
      </trkpt>
      <trkpt lat="42.81553" lon="0.1466">
        <ele>2069</ele>
        <time>2023-06-08T02:58:33Z</time>
      </trkpt>
      <trkpt lat="42.81553" lon="0.14661">
        <ele>2072</ele>
        <time>2023-06-08T02:58:39Z</time>
      </trkpt>
      <trkpt lat="42.81553" lon="0.14661">
        <ele>2072</ele>
        <time>2023-06-08T02:58:40Z</time>
      </trkpt>
      <trkpt lat="42.81554" lon="0.1466">
        <ele>2076</ele>
        <time>2023-06-08T02:58:48Z</time>
      </trkpt>
      <trkpt lat="42.81555" lon="0.14659">
        <ele>2076</ele>
        <time>2023-06-08T02:58:50Z</time>
      </trkpt>
      <trkpt lat="42.81555" lon="0.14661">
        <ele>2079</ele>
        <time>2023-06-08T02:59:03Z</time>
      </trkpt>
      <trkpt lat="42.81555" lon="0.14662">
        <ele>2082</ele>
        <time>2023-06-08T02:59:13Z</time>
      </trkpt>
      <trkpt lat="42.81554" lon="0.14662">
        <ele>2084</ele>
        <time>2023-06-08T02:59:41Z</time>
      </trkpt>
      <trkpt lat="42.81554" lon="0.14661">
        <ele>2086</ele>
        <time>2023-06-08T03:00:04Z</time>
      </trkpt>
      <trkpt lat="42.81557" lon="0.14661">
        <ele>2086</ele>
        <time>2023-06-08T03:00:34Z</time>
      </trkpt>
      <trkpt lat="42.81556" lon="0.14659">
        <ele>2086</ele>
        <time>2023-06-08T03:01:13Z</time>
      </trkpt>
      <trkpt lat="42.81556" lon="0.14659">
        <ele>2086</ele>
        <time>2023-06-08T03:01:46Z</time>
      </trkpt>
      <trkpt lat="42.81555" lon="0.1466">
        <ele>2086</ele>
        <time>2023-06-08T03:02:03Z</time>
      </trkpt>
      <trkpt lat="42.81554" lon="0.14659">
        <ele>2087</ele>
        <time>2023-06-08T03:02:13Z</time>
      </trkpt>
      <trkpt lat="42.81554" lon="0.14658">
        <ele>2087</ele>
        <time>2023-06-08T03:02:30Z</time>
      </trkpt>
      <trkpt lat="42.81554" lon="0.14654">
        <ele>2086</ele>
        <time>2023-06-08T03:02:45Z</time>
      </trkpt>
      <trkpt lat="42.81553" lon="0.14657">
        <ele>2088</ele>
        <time>2023-06-08T03:03:08Z</time>
      </trkpt>
      <trkpt lat="42.81555" lon="0.14657">
        <ele>2085</ele>
        <time>2023-06-08T03:03:11Z</time>
      </trkpt>
      <trkpt lat="42.81554" lon="0.14654">
        <ele>2087</ele>
        <time>2023-06-08T03:03:24Z</time>
      </trkpt>
      <trkpt lat="42.81548" lon="0.14656">
        <ele>2087</ele>
        <time>2023-06-08T03:03:38Z</time>
      </trkpt>
      <trkpt lat="42.81545" lon="0.14658">
        <ele>2088</ele>
        <time>2023-06-08T03:03:45Z</time>
      </trkpt>
      <trkpt lat="42.81536" lon="0.14665">
        <ele>2089</ele>
        <time>2023-06-08T03:03:57Z</time>
      </trkpt>
      <trkpt lat="42.81533" lon="0.14685">
        <ele>2089</ele>
        <time>2023-06-08T03:04:12Z</time>
      </trkpt>
      <trkpt lat="42.81527" lon="0.14697">
        <ele>2090</ele>
        <time>2023-06-08T03:04:24Z</time>
      </trkpt>
      <trkpt lat="42.81519" lon="0.14706">
        <ele>2092</ele>
        <time>2023-06-08T03:04:37Z</time>
      </trkpt>
      <trkpt lat="42.8151" lon="0.14713">
        <ele>2094</ele>
        <time>2023-06-08T03:04:50Z</time>
      </trkpt>
      <trkpt lat="42.81506" lon="0.14714">
        <ele>2095</ele>
        <time>2023-06-08T03:04:57Z</time>
      </trkpt>
      <trkpt lat="42.81496" lon="0.14708">
        <ele>2096</ele>
        <time>2023-06-08T03:05:11Z</time>
      </trkpt>
      <trkpt lat="42.81487" lon="0.14704">
        <ele>2099</ele>
        <time>2023-06-08T03:05:24Z</time>
      </trkpt>
      <trkpt lat="42.81475" lon="0.14702">
        <ele>2101</ele>
        <time>2023-06-08T03:05:39Z</time>
      </trkpt>
      <trkpt lat="42.81469" lon="0.14705">
        <ele>2103</ele>
        <time>2023-06-08T03:05:54Z</time>
      </trkpt>
      <trkpt lat="42.81458" lon="0.14705">
        <ele>2105</ele>
        <time>2023-06-08T03:06:08Z</time>
      </trkpt>
      <trkpt lat="42.81448" lon="0.14708">
        <ele>2107</ele>
        <time>2023-06-08T03:06:22Z</time>
      </trkpt>
      <trkpt lat="42.81438" lon="0.14708">
        <ele>2108</ele>
        <time>2023-06-08T03:06:35Z</time>
      </trkpt>
      <trkpt lat="42.81429" lon="0.14712">
        <ele>2112</ele>
        <time>2023-06-08T03:06:51Z</time>
      </trkpt>
      <trkpt lat="42.81423" lon="0.14712">
        <ele>2114</ele>
        <time>2023-06-08T03:07:04Z</time>
      </trkpt>
      <trkpt lat="42.81413" lon="0.14714">
        <ele>2115</ele>
        <time>2023-06-08T03:07:16Z</time>
      </trkpt>
      <trkpt lat="42.81403" lon="0.14714">
        <ele>2117</ele>
        <time>2023-06-08T03:07:31Z</time>
      </trkpt>
      <trkpt lat="42.81396" lon="0.14712">
        <ele>2120</ele>
        <time>2023-06-08T03:07:44Z</time>
      </trkpt>
      <trkpt lat="42.81384" lon="0.14705">
        <ele>2122</ele>
        <time>2023-06-08T03:08:00Z</time>
      </trkpt>
      <trkpt lat="42.81375" lon="0.14705">
        <ele>2124</ele>
        <time>2023-06-08T03:08:14Z</time>
      </trkpt>
      <trkpt lat="42.81364" lon="0.14698">
        <ele>2125</ele>
        <time>2023-06-08T03:08:29Z</time>
      </trkpt>
      <trkpt lat="42.81352" lon="0.14697">
        <ele>2128</ele>
        <time>2023-06-08T03:08:45Z</time>
      </trkpt>
      <trkpt lat="42.81338" lon="0.14703">
        <ele>2128</ele>
        <time>2023-06-08T03:09:00Z</time>
      </trkpt>
      <trkpt lat="42.8133" lon="0.14699">
        <ele>2128</ele>
        <time>2023-06-08T03:09:13Z</time>
      </trkpt>
      <trkpt lat="42.81326" lon="0.14699">
        <ele>2130</ele>
        <time>2023-06-08T03:09:18Z</time>
      </trkpt>
      <trkpt lat="42.81312" lon="0.14701">
        <ele>2132</ele>
        <time>2023-06-08T03:09:35Z</time>
      </trkpt>
      <trkpt lat="42.81304" lon="0.14704">
        <ele>2134</ele>
        <time>2023-06-08T03:09:49Z</time>
      </trkpt>
      <trkpt lat="42.81294" lon="0.14713">
        <ele>2136</ele>
        <time>2023-06-08T03:10:03Z</time>
      </trkpt>
      <trkpt lat="42.81283" lon="0.14717">
        <ele>2137</ele>
        <time>2023-06-08T03:10:16Z</time>
      </trkpt>
      <trkpt lat="42.81275" lon="0.14716">
        <ele>2139</ele>
        <time>2023-06-08T03:10:28Z</time>
      </trkpt>
      <trkpt lat="42.81264" lon="0.14715">
        <ele>2140</ele>
        <time>2023-06-08T03:10:42Z</time>
      </trkpt>
      <trkpt lat="42.81251" lon="0.14716">
        <ele>2142</ele>
        <time>2023-06-08T03:10:57Z</time>
      </trkpt>
      <trkpt lat="42.8124" lon="0.14719">
        <ele>2144</ele>
        <time>2023-06-08T03:11:10Z</time>
      </trkpt>
      <trkpt lat="42.81228" lon="0.14723">
        <ele>2145</ele>
        <time>2023-06-08T03:11:23Z</time>
      </trkpt>
      <trkpt lat="42.81217" lon="0.14716">
        <ele>2148</ele>
        <time>2023-06-08T03:11:40Z</time>
      </trkpt>
      <trkpt lat="42.81211" lon="0.14712">
        <ele>2149</ele>
        <time>2023-06-08T03:11:50Z</time>
      </trkpt>
      <trkpt lat="42.81199" lon="0.14703">
        <ele>2150</ele>
        <time>2023-06-08T03:12:06Z</time>
      </trkpt>
      <trkpt lat="42.81184" lon="0.14693">
        <ele>2150</ele>
        <time>2023-06-08T03:12:22Z</time>
      </trkpt>
      <trkpt lat="42.8117" lon="0.14684">
        <ele>2149</ele>
        <time>2023-06-08T03:12:35Z</time>
      </trkpt>
      <trkpt lat="42.81159" lon="0.14679">
        <ele>2150</ele>
        <time>2023-06-08T03:12:47Z</time>
      </trkpt>
      <trkpt lat="42.81149" lon="0.14671">
        <ele>2151</ele>
        <time>2023-06-08T03:13:01Z</time>
      </trkpt>
      <trkpt lat="42.81135" lon="0.14659">
        <ele>2152</ele>
        <time>2023-06-08T03:13:18Z</time>
      </trkpt>
      <trkpt lat="42.8113" lon="0.14652">
        <ele>2153</ele>
        <time>2023-06-08T03:13:29Z</time>
      </trkpt>
      <trkpt lat="42.81124" lon="0.14649">
        <ele>2153</ele>
        <time>2023-06-08T03:13:41Z</time>
      </trkpt>
      <trkpt lat="42.81115" lon="0.1465">
        <ele>2155</ele>
        <time>2023-06-08T03:13:57Z</time>
      </trkpt>
      <trkpt lat="42.81108" lon="0.14655">
        <ele>2158</ele>
        <time>2023-06-08T03:14:10Z</time>
      </trkpt>
      <trkpt lat="42.81101" lon="0.14659">
        <ele>2158</ele>
        <time>2023-06-08T03:14:21Z</time>
      </trkpt>
      <trkpt lat="42.811" lon="0.14659">
        <ele>2159</ele>
        <time>2023-06-08T03:14:23Z</time>
      </trkpt>
      <trkpt lat="42.81096" lon="0.14651">
        <ele>2159</ele>
        <time>2023-06-08T03:14:37Z</time>
      </trkpt>
      <trkpt lat="42.81094" lon="0.14647">
        <ele>2159</ele>
        <time>2023-06-08T03:14:42Z</time>
      </trkpt>
      <trkpt lat="42.81089" lon="0.14642">
        <ele>2159</ele>
        <time>2023-06-08T03:14:55Z</time>
      </trkpt>
      <trkpt lat="42.81084" lon="0.14644">
        <ele>2160</ele>
        <time>2023-06-08T03:15:07Z</time>
      </trkpt>
      <trkpt lat="42.81083" lon="0.14644">
        <ele>2158</ele>
        <time>2023-06-08T03:15:09Z</time>
      </trkpt>
      <trkpt lat="42.81072" lon="0.14637">
        <ele>2160</ele>
        <time>2023-06-08T03:15:23Z</time>
      </trkpt>
      <trkpt lat="42.81068" lon="0.14626">
        <ele>2161</ele>
        <time>2023-06-08T03:15:35Z</time>
      </trkpt>
      <trkpt lat="42.81066" lon="0.1462">
        <ele>2161</ele>
        <time>2023-06-08T03:15:41Z</time>
      </trkpt>
      <trkpt lat="42.81065" lon="0.14617">
        <ele>2160</ele>
        <time>2023-06-08T03:15:44Z</time>
      </trkpt>
      <trkpt lat="42.81056" lon="0.14605">
        <ele>2161</ele>
        <time>2023-06-08T03:15:58Z</time>
      </trkpt>
      <trkpt lat="42.81054" lon="0.14602">
        <ele>2161</ele>
        <time>2023-06-08T03:16:01Z</time>
      </trkpt>
      <trkpt lat="42.81053" lon="0.14601">
        <ele>2162</ele>
        <time>2023-06-08T03:16:03Z</time>
      </trkpt>
      <trkpt lat="42.8105" lon="0.14594">
        <ele>2162</ele>
        <time>2023-06-08T03:16:09Z</time>
      </trkpt>
      <trkpt lat="42.81049" lon="0.14589">
        <ele>2162</ele>
        <time>2023-06-08T03:16:12Z</time>
      </trkpt>
      <trkpt lat="42.81044" lon="0.14584">
        <ele>2163</ele>
        <time>2023-06-08T03:16:19Z</time>
      </trkpt>
      <trkpt lat="42.81041" lon="0.14582">
        <ele>2163</ele>
        <time>2023-06-08T03:16:22Z</time>
      </trkpt>
      <trkpt lat="42.81034" lon="0.14572">
        <ele>2164</ele>
        <time>2023-06-08T03:16:34Z</time>
      </trkpt>
      <trkpt lat="42.81022" lon="0.14561">
        <ele>2165</ele>
        <time>2023-06-08T03:16:49Z</time>
      </trkpt>
      <trkpt lat="42.81013" lon="0.14555">
        <ele>2165</ele>
        <time>2023-06-08T03:17:02Z</time>
      </trkpt>
      <trkpt lat="42.81008" lon="0.1455">
        <ele>2165</ele>
        <time>2023-06-08T03:17:12Z</time>
      </trkpt>
      <trkpt lat="42.80993" lon="0.14545">
        <ele>2168</ele>
        <time>2023-06-08T03:17:29Z</time>
      </trkpt>
      <trkpt lat="42.80988" lon="0.14544">
        <ele>2169</ele>
        <time>2023-06-08T03:17:35Z</time>
      </trkpt>
      <trkpt lat="42.80973" lon="0.14542">
        <ele>2170</ele>
        <time>2023-06-08T03:17:51Z</time>
      </trkpt>
      <trkpt lat="42.80961" lon="0.14537">
        <ele>2171</ele>
        <time>2023-06-08T03:18:04Z</time>
      </trkpt>
      <trkpt lat="42.8095" lon="0.14534">
        <ele>2174</ele>
        <time>2023-06-08T03:18:17Z</time>
      </trkpt>
      <trkpt lat="42.80937" lon="0.14531">
        <ele>2175</ele>
        <time>2023-06-08T03:18:34Z</time>
      </trkpt>
      <trkpt lat="42.80925" lon="0.14526">
        <ele>2177</ele>
        <time>2023-06-08T03:18:48Z</time>
      </trkpt>
      <trkpt lat="42.80913" lon="0.14519">
        <ele>2179</ele>
        <time>2023-06-08T03:19:05Z</time>
      </trkpt>
      <trkpt lat="42.80905" lon="0.14511">
        <ele>2179</ele>
        <time>2023-06-08T03:19:18Z</time>
      </trkpt>
      <trkpt lat="42.80898" lon="0.14499">
        <ele>2179</ele>
        <time>2023-06-08T03:19:31Z</time>
      </trkpt>
      <trkpt lat="42.8089" lon="0.14499">
        <ele>2181</ele>
        <time>2023-06-08T03:19:46Z</time>
      </trkpt>
      <trkpt lat="42.80884" lon="0.14499">
        <ele>2182</ele>
        <time>2023-06-08T03:19:58Z</time>
      </trkpt>
      <trkpt lat="42.80879" lon="0.14496">
        <ele>2182</ele>
        <time>2023-06-08T03:20:12Z</time>
      </trkpt>
      <trkpt lat="42.80873" lon="0.145">
        <ele>2182</ele>
        <time>2023-06-08T03:20:26Z</time>
      </trkpt>
      <trkpt lat="42.80867" lon="0.14498">
        <ele>2182</ele>
        <time>2023-06-08T03:20:34Z</time>
      </trkpt>
      <trkpt lat="42.80859" lon="0.14499">
        <ele>2183</ele>
        <time>2023-06-08T03:20:44Z</time>
      </trkpt>
      <trkpt lat="42.80855" lon="0.1449">
        <ele>2184</ele>
        <time>2023-06-08T03:20:59Z</time>
      </trkpt>
      <trkpt lat="42.80849" lon="0.14489">
        <ele>2184</ele>
        <time>2023-06-08T03:21:12Z</time>
      </trkpt>
      <trkpt lat="42.80841" lon="0.14484">
        <ele>2186</ele>
        <time>2023-06-08T03:21:25Z</time>
      </trkpt>
      <trkpt lat="42.80834" lon="0.14474">
        <ele>2186</ele>
        <time>2023-06-08T03:21:39Z</time>
      </trkpt>
      <trkpt lat="42.80833" lon="0.14469">
        <ele>2186</ele>
        <time>2023-06-08T03:21:54Z</time>
      </trkpt>
      <trkpt lat="42.80835" lon="0.14469">
        <ele>2186</ele>
        <time>2023-06-08T03:22:00Z</time>
      </trkpt>
      <trkpt lat="42.80837" lon="0.14468">
        <ele>2188</ele>
        <time>2023-06-08T03:22:12Z</time>
      </trkpt>
      <trkpt lat="42.80833" lon="0.14466">
        <ele>2187</ele>
        <time>2023-06-08T03:22:30Z</time>
      </trkpt>
      <trkpt lat="42.80831" lon="0.1446">
        <ele>2188</ele>
        <time>2023-06-08T03:22:45Z</time>
      </trkpt>
      <trkpt lat="42.80834" lon="0.14453">
        <ele>2190</ele>
        <time>2023-06-08T03:22:51Z</time>
      </trkpt>
      <trkpt lat="42.80831" lon="0.14432">
        <ele>2191</ele>
        <time>2023-06-08T03:23:05Z</time>
      </trkpt>
      <trkpt lat="42.80824" lon="0.14414">
        <ele>2192</ele>
        <time>2023-06-08T03:23:21Z</time>
      </trkpt>
      <trkpt lat="42.80815" lon="0.14399">
        <ele>2195</ele>
        <time>2023-06-08T03:23:37Z</time>
      </trkpt>
      <trkpt lat="42.80809" lon="0.14395">
        <ele>2196</ele>
        <time>2023-06-08T03:23:50Z</time>
      </trkpt>
      <trkpt lat="42.80811" lon="0.14388">
        <ele>2198</ele>
        <time>2023-06-08T03:24:05Z</time>
      </trkpt>
      <trkpt lat="42.80808" lon="0.14375">
        <ele>2200</ele>
        <time>2023-06-08T03:24:19Z</time>
      </trkpt>
      <trkpt lat="42.80809" lon="0.14363">
        <ele>2202</ele>
        <time>2023-06-08T03:24:33Z</time>
      </trkpt>
      <trkpt lat="42.80802" lon="0.14354">
        <ele>2203</ele>
        <time>2023-06-08T03:24:48Z</time>
      </trkpt>
      <trkpt lat="42.80799" lon="0.14345">
        <ele>2206</ele>
        <time>2023-06-08T03:25:05Z</time>
      </trkpt>
      <trkpt lat="42.80796" lon="0.1434">
        <ele>2209</ele>
        <time>2023-06-08T03:25:20Z</time>
      </trkpt>
      <trkpt lat="42.80797" lon="0.14331">
        <ele>2210</ele>
        <time>2023-06-08T03:25:33Z</time>
      </trkpt>
      <trkpt lat="42.80794" lon="0.14328">
        <ele>2213</ele>
        <time>2023-06-08T03:25:50Z</time>
      </trkpt>
      <trkpt lat="42.80783" lon="0.14323">
        <ele>2215</ele>
        <time>2023-06-08T03:26:06Z</time>
      </trkpt>
      <trkpt lat="42.80777" lon="0.14311">
        <ele>2217</ele>
        <time>2023-06-08T03:26:21Z</time>
      </trkpt>
      <trkpt lat="42.80772" lon="0.14305">
        <ele>2220</ele>
        <time>2023-06-08T03:26:37Z</time>
      </trkpt>
      <trkpt lat="42.80768" lon="0.14304">
        <ele>2220</ele>
        <time>2023-06-08T03:26:51Z</time>
      </trkpt>
      <trkpt lat="42.80766" lon="0.14303">
        <ele>2222</ele>
        <time>2023-06-08T03:27:10Z</time>
      </trkpt>
      <trkpt lat="42.80767" lon="0.14306">
        <ele>2221</ele>
        <time>2023-06-08T03:27:31Z</time>
      </trkpt>
      <trkpt lat="42.8076" lon="0.14297">
        <ele>2225</ele>
        <time>2023-06-08T03:27:47Z</time>
      </trkpt>
      <trkpt lat="42.80753" lon="0.14293">
        <ele>2227</ele>
        <time>2023-06-08T03:28:03Z</time>
      </trkpt>
      <trkpt lat="42.80751" lon="0.14293">
        <ele>2229</ele>
        <time>2023-06-08T03:28:07Z</time>
      </trkpt>
      <trkpt lat="42.80744" lon="0.14285">
        <ele>2231</ele>
        <time>2023-06-08T03:28:22Z</time>
      </trkpt>
      <trkpt lat="42.80741" lon="0.14281">
        <ele>2233</ele>
        <time>2023-06-08T03:28:37Z</time>
      </trkpt>
      <trkpt lat="42.80737" lon="0.14274">
        <ele>2236</ele>
        <time>2023-06-08T03:28:53Z</time>
      </trkpt>
      <trkpt lat="42.80729" lon="0.14277">
        <ele>2238</ele>
        <time>2023-06-08T03:29:08Z</time>
      </trkpt>
      <trkpt lat="42.8072" lon="0.14281">
        <ele>2241</ele>
        <time>2023-06-08T03:29:23Z</time>
      </trkpt>
      <trkpt lat="42.80714" lon="0.14284">
        <ele>2243</ele>
        <time>2023-06-08T03:29:36Z</time>
      </trkpt>
      <trkpt lat="42.8071" lon="0.14284">
        <ele>2245</ele>
        <time>2023-06-08T03:29:49Z</time>
      </trkpt>
      <trkpt lat="42.8071" lon="0.1429">
        <ele>2247</ele>
        <time>2023-06-08T03:30:03Z</time>
      </trkpt>
      <trkpt lat="42.807" lon="0.14296">
        <ele>2249</ele>
        <time>2023-06-08T03:30:18Z</time>
      </trkpt>
      <trkpt lat="42.80692" lon="0.14302">
        <ele>2250</ele>
        <time>2023-06-08T03:30:32Z</time>
      </trkpt>
      <trkpt lat="42.80688" lon="0.14306">
        <ele>2251</ele>
        <time>2023-06-08T03:30:48Z</time>
      </trkpt>
      <trkpt lat="42.80682" lon="0.14301">
        <ele>2252</ele>
        <time>2023-06-08T03:31:03Z</time>
      </trkpt>
      <trkpt lat="42.80678" lon="0.14302">
        <ele>2253</ele>
        <time>2023-06-08T03:31:25Z</time>
      </trkpt>
      <trkpt lat="42.80671" lon="0.14305">
        <ele>2254</ele>
        <time>2023-06-08T03:31:38Z</time>
      </trkpt>
      <trkpt lat="42.80665" lon="0.143">
        <ele>2256</ele>
        <time>2023-06-08T03:31:50Z</time>
      </trkpt>
      <trkpt lat="42.80657" lon="0.14293">
        <ele>2258</ele>
        <time>2023-06-08T03:32:04Z</time>
      </trkpt>
      <trkpt lat="42.8065" lon="0.1429">
        <ele>2260</ele>
        <time>2023-06-08T03:32:18Z</time>
      </trkpt>
      <trkpt lat="42.80645" lon="0.14283">
        <ele>2262</ele>
        <time>2023-06-08T03:32:32Z</time>
      </trkpt>
      <trkpt lat="42.8064" lon="0.14275">
        <ele>2264</ele>
        <time>2023-06-08T03:32:46Z</time>
      </trkpt>
      <trkpt lat="42.80634" lon="0.1427">
        <ele>2266</ele>
        <time>2023-06-08T03:33:03Z</time>
      </trkpt>
      <trkpt lat="42.80626" lon="0.14269">
        <ele>2268</ele>
        <time>2023-06-08T03:33:18Z</time>
      </trkpt>
      <trkpt lat="42.80618" lon="0.14271">
        <ele>2271</ele>
        <time>2023-06-08T03:33:33Z</time>
      </trkpt>
      <trkpt lat="42.80614" lon="0.14268">
        <ele>2272</ele>
        <time>2023-06-08T03:33:48Z</time>
      </trkpt>
      <trkpt lat="42.80608" lon="0.14268">
        <ele>2273</ele>
        <time>2023-06-08T03:34:02Z</time>
      </trkpt>
      <trkpt lat="42.80601" lon="0.14266">
        <ele>2277</ele>
        <time>2023-06-08T03:34:18Z</time>
      </trkpt>
      <trkpt lat="42.80602" lon="0.14259">
        <ele>2277</ele>
        <time>2023-06-08T03:34:34Z</time>
      </trkpt>
      <trkpt lat="42.806" lon="0.14251">
        <ele>2280</ele>
        <time>2023-06-08T03:34:49Z</time>
      </trkpt>
      <trkpt lat="42.80596" lon="0.14247">
        <ele>2281</ele>
        <time>2023-06-08T03:35:01Z</time>
      </trkpt>
      <trkpt lat="42.80595" lon="0.14238">
        <ele>2284</ele>
        <time>2023-06-08T03:35:15Z</time>
      </trkpt>
      <trkpt lat="42.80599" lon="0.14231">
        <ele>2287</ele>
        <time>2023-06-08T03:35:31Z</time>
      </trkpt>
      <trkpt lat="42.80605" lon="0.14228">
        <ele>2288</ele>
        <time>2023-06-08T03:35:46Z</time>
      </trkpt>
      <trkpt lat="42.80614" lon="0.14228">
        <ele>2289</ele>
        <time>2023-06-08T03:36:01Z</time>
      </trkpt>
      <trkpt lat="42.80621" lon="0.14224">
        <ele>2289</ele>
        <time>2023-06-08T03:36:18Z</time>
      </trkpt>
      <trkpt lat="42.80627" lon="0.1422">
        <ele>2289</ele>
        <time>2023-06-08T03:36:32Z</time>
      </trkpt>
      <trkpt lat="42.80631" lon="0.14221">
        <ele>2289</ele>
        <time>2023-06-08T03:36:44Z</time>
      </trkpt>
      <trkpt lat="42.80636" lon="0.14218">
        <ele>2290</ele>
        <time>2023-06-08T03:37:03Z</time>
      </trkpt>
      <trkpt lat="42.80645" lon="0.14212">
        <ele>2290</ele>
        <time>2023-06-08T03:37:18Z</time>
      </trkpt>
      <trkpt lat="42.80654" lon="0.14207">
        <ele>2293</ele>
        <time>2023-06-08T03:37:34Z</time>
      </trkpt>
      <trkpt lat="42.80662" lon="0.142">
        <ele>2295</ele>
        <time>2023-06-08T03:37:49Z</time>
      </trkpt>
      <trkpt lat="42.80664" lon="0.14192">
        <ele>2297</ele>
        <time>2023-06-08T03:38:05Z</time>
      </trkpt>
      <trkpt lat="42.80663" lon="0.14189">
        <ele>2298</ele>
        <time>2023-06-08T03:38:22Z</time>
      </trkpt>
      <trkpt lat="42.80668" lon="0.14183">
        <ele>2300</ele>
        <time>2023-06-08T03:38:38Z</time>
      </trkpt>
      <trkpt lat="42.80669" lon="0.14174">
        <ele>2302</ele>
        <time>2023-06-08T03:38:52Z</time>
      </trkpt>
      <trkpt lat="42.80668" lon="0.14165">
        <ele>2305</ele>
        <time>2023-06-08T03:39:08Z</time>
      </trkpt>
      <trkpt lat="42.80667" lon="0.14158">
        <ele>2307</ele>
        <time>2023-06-08T03:39:22Z</time>
      </trkpt>
      <trkpt lat="42.80671" lon="0.14153">
        <ele>2309</ele>
        <time>2023-06-08T03:39:37Z</time>
      </trkpt>
      <trkpt lat="42.80669" lon="0.14144">
        <ele>2310</ele>
        <time>2023-06-08T03:39:52Z</time>
      </trkpt>
      <trkpt lat="42.80671" lon="0.14134">
        <ele>2312</ele>
        <time>2023-06-08T03:40:08Z</time>
      </trkpt>
      <trkpt lat="42.80671" lon="0.1413">
        <ele>2314</ele>
        <time>2023-06-08T03:40:23Z</time>
      </trkpt>
      <trkpt lat="42.80668" lon="0.14124">
        <ele>2316</ele>
        <time>2023-06-08T03:40:36Z</time>
      </trkpt>
      <trkpt lat="42.80664" lon="0.14121">
        <ele>2318</ele>
        <time>2023-06-08T03:40:51Z</time>
      </trkpt>
      <trkpt lat="42.80667" lon="0.14117">
        <ele>2319</ele>
        <time>2023-06-08T03:41:07Z</time>
      </trkpt>
      <trkpt lat="42.80666" lon="0.1411">
        <ele>2320</ele>
        <time>2023-06-08T03:41:28Z</time>
      </trkpt>
      <trkpt lat="42.80665" lon="0.14108">
        <ele>2321</ele>
        <time>2023-06-08T03:41:40Z</time>
      </trkpt>
      <trkpt lat="42.80667" lon="0.14104">
        <ele>2324</ele>
        <time>2023-06-08T03:41:57Z</time>
      </trkpt>
      <trkpt lat="42.80665" lon="0.141">
        <ele>2327</ele>
        <time>2023-06-08T03:42:14Z</time>
      </trkpt>
      <trkpt lat="42.80662" lon="0.14095">
        <ele>2328</ele>
        <time>2023-06-08T03:42:32Z</time>
      </trkpt>
      <trkpt lat="42.80664" lon="0.14091">
        <ele>2331</ele>
        <time>2023-06-08T03:42:48Z</time>
      </trkpt>
      <trkpt lat="42.80668" lon="0.14087">
        <ele>2333</ele>
        <time>2023-06-08T03:43:03Z</time>
      </trkpt>
      <trkpt lat="42.80665" lon="0.14085">
        <ele>2336</ele>
        <time>2023-06-08T03:43:17Z</time>
      </trkpt>
      <trkpt lat="42.80663" lon="0.14084">
        <ele>2337</ele>
        <time>2023-06-08T03:43:32Z</time>
      </trkpt>
      <trkpt lat="42.80661" lon="0.14087">
        <ele>2339</ele>
        <time>2023-06-08T03:43:52Z</time>
      </trkpt>
      <trkpt lat="42.80664" lon="0.14079">
        <ele>2340</ele>
        <time>2023-06-08T03:44:09Z</time>
      </trkpt>
      <trkpt lat="42.80663" lon="0.14072">
        <ele>2343</ele>
        <time>2023-06-08T03:44:24Z</time>
      </trkpt>
      <trkpt lat="42.80658" lon="0.14076">
        <ele>2345</ele>
        <time>2023-06-08T03:44:40Z</time>
      </trkpt>
      <trkpt lat="42.80653" lon="0.14077">
        <ele>2346</ele>
        <time>2023-06-08T03:44:51Z</time>
      </trkpt>
      <trkpt lat="42.80649" lon="0.14084">
        <ele>2349</ele>
        <time>2023-06-08T03:45:04Z</time>
      </trkpt>
      <trkpt lat="42.80645" lon="0.14086">
        <ele>2350</ele>
        <time>2023-06-08T03:45:18Z</time>
      </trkpt>
      <trkpt lat="42.80644" lon="0.14094">
        <ele>2352</ele>
        <time>2023-06-08T03:45:34Z</time>
      </trkpt>
      <trkpt lat="42.80639" lon="0.14092">
        <ele>2354</ele>
        <time>2023-06-08T03:45:48Z</time>
      </trkpt>
      <trkpt lat="42.80634" lon="0.1409">
        <ele>2357</ele>
        <time>2023-06-08T03:46:02Z</time>
      </trkpt>
      <trkpt lat="42.80626" lon="0.14095">
        <ele>2358</ele>
        <time>2023-06-08T03:46:18Z</time>
      </trkpt>
      <trkpt lat="42.8062" lon="0.14097">
        <ele>2362</ele>
        <time>2023-06-08T03:46:33Z</time>
      </trkpt>
      <trkpt lat="42.80617" lon="0.14095">
        <ele>2362</ele>
        <time>2023-06-08T03:46:50Z</time>
      </trkpt>
      <trkpt lat="42.80614" lon="0.14092">
        <ele>2363</ele>
        <time>2023-06-08T03:47:06Z</time>
      </trkpt>
      <trkpt lat="42.80609" lon="0.14092">
        <ele>2366</ele>
        <time>2023-06-08T03:47:22Z</time>
      </trkpt>
      <trkpt lat="42.80607" lon="0.14092">
        <ele>2367</ele>
        <time>2023-06-08T03:47:34Z</time>
      </trkpt>
      <trkpt lat="42.80603" lon="0.14084">
        <ele>2368</ele>
        <time>2023-06-08T03:47:47Z</time>
      </trkpt>
      <trkpt lat="42.806" lon="0.1408">
        <ele>2369</ele>
        <time>2023-06-08T03:48:01Z</time>
      </trkpt>
      <trkpt lat="42.80595" lon="0.14069">
        <ele>2371</ele>
        <time>2023-06-08T03:48:14Z</time>
      </trkpt>
      <trkpt lat="42.80587" lon="0.1406">
        <ele>2374</ele>
        <time>2023-06-08T03:48:30Z</time>
      </trkpt>
      <trkpt lat="42.80578" lon="0.1405">
        <ele>2375</ele>
        <time>2023-06-08T03:48:45Z</time>
      </trkpt>
      <trkpt lat="42.80572" lon="0.14042">
        <ele>2376</ele>
        <time>2023-06-08T03:49:00Z</time>
      </trkpt>
      <trkpt lat="42.80564" lon="0.14039">
        <ele>2378</ele>
        <time>2023-06-08T03:49:14Z</time>
      </trkpt>
      <trkpt lat="42.80562" lon="0.14029">
        <ele>2381</ele>
        <time>2023-06-08T03:49:28Z</time>
      </trkpt>
      <trkpt lat="42.80561" lon="0.14014">
        <ele>2382</ele>
        <time>2023-06-08T03:49:44Z</time>
      </trkpt>
      <trkpt lat="42.80553" lon="0.14006">
        <ele>2384</ele>
        <time>2023-06-08T03:50:00Z</time>
      </trkpt>
      <trkpt lat="42.80546" lon="0.13992">
        <ele>2386</ele>
        <time>2023-06-08T03:50:15Z</time>
      </trkpt>
      <trkpt lat="42.80542" lon="0.13984">
        <ele>2387</ele>
        <time>2023-06-08T03:50:31Z</time>
      </trkpt>
      <trkpt lat="42.80539" lon="0.13977">
        <ele>2387</ele>
        <time>2023-06-08T03:50:39Z</time>
      </trkpt>
      <trkpt lat="42.80532" lon="0.13955">
        <ele>2387</ele>
        <time>2023-06-08T03:50:56Z</time>
      </trkpt>
      <trkpt lat="42.80531" lon="0.13941">
        <ele>2389</ele>
        <time>2023-06-08T03:51:10Z</time>
      </trkpt>
      <trkpt lat="42.80526" lon="0.13927">
        <ele>2389</ele>
        <time>2023-06-08T03:51:23Z</time>
      </trkpt>
      <trkpt lat="42.80525" lon="0.13916">
        <ele>2389</ele>
        <time>2023-06-08T03:51:31Z</time>
      </trkpt>
      <trkpt lat="42.80516" lon="0.13906">
        <ele>2389</ele>
        <time>2023-06-08T03:51:43Z</time>
      </trkpt>
      <trkpt lat="42.80514" lon="0.13907">
        <ele>2389</ele>
        <time>2023-06-08T03:51:57Z</time>
      </trkpt>
      <trkpt lat="42.80509" lon="0.13907">
        <ele>2389</ele>
        <time>2023-06-08T03:52:11Z</time>
      </trkpt>
      <trkpt lat="42.80502" lon="0.1391">
        <ele>2390</ele>
        <time>2023-06-08T03:52:23Z</time>
      </trkpt>
      <trkpt lat="42.80499" lon="0.13899">
        <ele>2392</ele>
        <time>2023-06-08T03:52:39Z</time>
      </trkpt>
      <trkpt lat="42.80494" lon="0.13888">
        <ele>2394</ele>
        <time>2023-06-08T03:52:52Z</time>
      </trkpt>
      <trkpt lat="42.80493" lon="0.13884">
        <ele>2395</ele>
        <time>2023-06-08T03:52:55Z</time>
      </trkpt>
      <trkpt lat="42.80488" lon="0.13872">
        <ele>2396</ele>
        <time>2023-06-08T03:53:08Z</time>
      </trkpt>
      <trkpt lat="42.80492" lon="0.1387">
        <ele>2396</ele>
        <time>2023-06-08T03:53:18Z</time>
      </trkpt>
      <trkpt lat="42.80486" lon="0.1387">
        <ele>2395</ele>
        <time>2023-06-08T03:53:32Z</time>
      </trkpt>
      <trkpt lat="42.80487" lon="0.13872">
        <ele>2396</ele>
        <time>2023-06-08T03:53:47Z</time>
      </trkpt>
      <trkpt lat="42.8049" lon="0.13872">
        <ele>2395</ele>
        <time>2023-06-08T03:54:16Z</time>
      </trkpt>
      <trkpt lat="42.80489" lon="0.13873">
        <ele>2395</ele>
        <time>2023-06-08T03:54:46Z</time>
      </trkpt>
      <trkpt lat="42.80491" lon="0.1387">
        <ele>2394</ele>
        <time>2023-06-08T03:55:01Z</time>
      </trkpt>
      <trkpt lat="42.80489" lon="0.13868">
        <ele>2394</ele>
        <time>2023-06-08T03:55:39Z</time>
      </trkpt>
      <trkpt lat="42.80491" lon="0.13866">
        <ele>2395</ele>
        <time>2023-06-08T03:55:55Z</time>
      </trkpt>
      <trkpt lat="42.80492" lon="0.13871">
        <ele>2394</ele>
        <time>2023-06-08T03:56:25Z</time>
      </trkpt>
      <trkpt lat="42.80493" lon="0.13872">
        <ele>2395</ele>
        <time>2023-06-08T03:56:58Z</time>
      </trkpt>
      <trkpt lat="42.80489" lon="0.13874">
        <ele>2396</ele>
        <time>2023-06-08T03:57:29Z</time>
      </trkpt>
      <trkpt lat="42.80492" lon="0.13878">
        <ele>2395</ele>
        <time>2023-06-08T03:58:11Z</time>
      </trkpt>
      <trkpt lat="42.80493" lon="0.13881">
        <ele>2395</ele>
        <time>2023-06-08T03:58:52Z</time>
      </trkpt>
      <trkpt lat="42.80494" lon="0.13885">
        <ele>2395</ele>
        <time>2023-06-08T03:59:32Z</time>
      </trkpt>
      <trkpt lat="42.805" lon="0.13882">
        <ele>2395</ele>
        <time>2023-06-08T04:00:05Z</time>
      </trkpt>
      <trkpt lat="42.80495" lon="0.13882">
        <ele>2395</ele>
        <time>2023-06-08T04:00:42Z</time>
      </trkpt>
      <trkpt lat="42.80494" lon="0.13877">
        <ele>2396</ele>
        <time>2023-06-08T04:01:25Z</time>
      </trkpt>
      <trkpt lat="42.80497" lon="0.13879">
        <ele>2396</ele>
        <time>2023-06-08T04:02:04Z</time>
      </trkpt>
      <trkpt lat="42.80494" lon="0.13879">
        <ele>2397</ele>
        <time>2023-06-08T04:02:32Z</time>
      </trkpt>
      <trkpt lat="42.80494" lon="0.13879">
        <ele>2396</ele>
        <time>2023-06-08T04:03:06Z</time>
      </trkpt>
      <trkpt lat="42.80491" lon="0.1388">
        <ele>2396</ele>
        <time>2023-06-08T04:03:46Z</time>
      </trkpt>
      <trkpt lat="42.80492" lon="0.13884">
        <ele>2397</ele>
        <time>2023-06-08T04:04:26Z</time>
      </trkpt>
      <trkpt lat="42.8049" lon="0.13887">
        <ele>2397</ele>
        <time>2023-06-08T04:05:01Z</time>
      </trkpt>
      <trkpt lat="42.80492" lon="0.13877">
        <ele>2397</ele>
        <time>2023-06-08T04:05:32Z</time>
      </trkpt>
      <trkpt lat="42.80494" lon="0.13876">
        <ele>2397</ele>
        <time>2023-06-08T04:06:04Z</time>
      </trkpt>
      <trkpt lat="42.80495" lon="0.13878">
        <ele>2397</ele>
        <time>2023-06-08T04:06:32Z</time>
      </trkpt>
      <trkpt lat="42.80494" lon="0.13883">
        <ele>2397</ele>
        <time>2023-06-08T04:07:08Z</time>
      </trkpt>
      <trkpt lat="42.80493" lon="0.13885">
        <ele>2397</ele>
        <time>2023-06-08T04:07:39Z</time>
      </trkpt>
      <trkpt lat="42.80495" lon="0.13889">
        <ele>2397</ele>
        <time>2023-06-08T04:08:07Z</time>
      </trkpt>
      <trkpt lat="42.80489" lon="0.13889">
        <ele>2396</ele>
        <time>2023-06-08T04:08:36Z</time>
      </trkpt>
      <trkpt lat="42.80489" lon="0.13884">
        <ele>2397</ele>
        <time>2023-06-08T04:09:09Z</time>
      </trkpt>
      <trkpt lat="42.80489" lon="0.13883">
        <ele>2396</ele>
        <time>2023-06-08T04:09:35Z</time>
      </trkpt>
      <trkpt lat="42.80488" lon="0.13879">
        <ele>2397</ele>
        <time>2023-06-08T04:10:10Z</time>
      </trkpt>
      <trkpt lat="42.80491" lon="0.13877">
        <ele>2396</ele>
        <time>2023-06-08T04:10:42Z</time>
      </trkpt>
      <trkpt lat="42.80487" lon="0.13877">
        <ele>2396</ele>
        <time>2023-06-08T04:11:14Z</time>
      </trkpt>
      <trkpt lat="42.8049" lon="0.13879">
        <ele>2396</ele>
        <time>2023-06-08T04:11:48Z</time>
      </trkpt>
      <trkpt lat="42.80488" lon="0.13885">
        <ele>2396</ele>
        <time>2023-06-08T04:12:21Z</time>
      </trkpt>
      <trkpt lat="42.80489" lon="0.13898">
        <ele>2396</ele>
        <time>2023-06-08T04:12:53Z</time>
      </trkpt>
      <trkpt lat="42.80487" lon="0.13881">
        <ele>2395</ele>
        <time>2023-06-08T04:13:23Z</time>
      </trkpt>
      <trkpt lat="42.80487" lon="0.1388">
        <ele>2395</ele>
        <time>2023-06-08T04:13:55Z</time>
      </trkpt>
      <trkpt lat="42.80489" lon="0.13877">
        <ele>2396</ele>
        <time>2023-06-08T04:14:32Z</time>
      </trkpt>
      <trkpt lat="42.80489" lon="0.13875">
        <ele>2395</ele>
        <time>2023-06-08T04:15:06Z</time>
      </trkpt>
      <trkpt lat="42.80489" lon="0.13877">
        <ele>2395</ele>
        <time>2023-06-08T04:15:38Z</time>
      </trkpt>
      <trkpt lat="42.80488" lon="0.13875">
        <ele>2395</ele>
        <time>2023-06-08T04:16:13Z</time>
      </trkpt>
      <trkpt lat="42.80491" lon="0.13875">
        <ele>2395</ele>
        <time>2023-06-08T04:16:31Z</time>
      </trkpt>
      <trkpt lat="42.80491" lon="0.13872">
        <ele>2395</ele>
        <time>2023-06-08T04:16:59Z</time>
      </trkpt>
      <trkpt lat="42.80493" lon="0.13869">
        <ele>2396</ele>
        <time>2023-06-08T04:17:27Z</time>
      </trkpt>
      <trkpt lat="42.80492" lon="0.13868">
        <ele>2396</ele>
        <time>2023-06-08T04:17:44Z</time>
      </trkpt>
      <trkpt lat="42.80488" lon="0.13869">
        <ele>2397</ele>
        <time>2023-06-08T04:17:54Z</time>
      </trkpt>
      <trkpt lat="42.80491" lon="0.13863">
        <ele>2397</ele>
        <time>2023-06-08T04:18:13Z</time>
      </trkpt>
      <trkpt lat="42.80494" lon="0.13865">
        <ele>2397</ele>
        <time>2023-06-08T04:18:25Z</time>
      </trkpt>
      <trkpt lat="42.80491" lon="0.1387">
        <ele>2397</ele>
        <time>2023-06-08T04:18:38Z</time>
      </trkpt>
      <trkpt lat="42.80489" lon="0.13865">
        <ele>2397</ele>
        <time>2023-06-08T04:18:50Z</time>
      </trkpt>
      <trkpt lat="42.80486" lon="0.13862">
        <ele>2398</ele>
        <time>2023-06-08T04:19:12Z</time>
      </trkpt>
      <trkpt lat="42.80487" lon="0.13868">
        <ele>2398</ele>
        <time>2023-06-08T04:19:30Z</time>
      </trkpt>
      <trkpt lat="42.80485" lon="0.13865">
        <ele>2398</ele>
        <time>2023-06-08T04:19:42Z</time>
      </trkpt>
      <trkpt lat="42.80485" lon="0.13859">
        <ele>2398</ele>
        <time>2023-06-08T04:19:55Z</time>
      </trkpt>
      <trkpt lat="42.80485" lon="0.13851">
        <ele>2398</ele>
        <time>2023-06-08T04:20:10Z</time>
      </trkpt>
      <trkpt lat="42.80485" lon="0.13852">
        <ele>2398</ele>
        <time>2023-06-08T04:20:24Z</time>
      </trkpt>
      <trkpt lat="42.80485" lon="0.13854">
        <ele>2398</ele>
        <time>2023-06-08T04:20:50Z</time>
      </trkpt>
      <trkpt lat="42.80485" lon="0.13852">
        <ele>2398</ele>
        <time>2023-06-08T04:21:22Z</time>
      </trkpt>
      <trkpt lat="42.80483" lon="0.13847">
        <ele>2398</ele>
        <time>2023-06-08T04:21:40Z</time>
      </trkpt>
      <trkpt lat="42.80483" lon="0.13852">
        <ele>2397</ele>
        <time>2023-06-08T04:22:02Z</time>
      </trkpt>
      <trkpt lat="42.80483" lon="0.13845">
        <ele>2398</ele>
        <time>2023-06-08T04:22:14Z</time>
      </trkpt>
      <trkpt lat="42.80477" lon="0.13833">
        <ele>2399</ele>
        <time>2023-06-08T04:22:28Z</time>
      </trkpt>
      <trkpt lat="42.80475" lon="0.13816">
        <ele>2400</ele>
        <time>2023-06-08T04:22:41Z</time>
      </trkpt>
      <trkpt lat="42.80466" lon="0.13807">
        <ele>2401</ele>
        <time>2023-06-08T04:22:55Z</time>
      </trkpt>
      <trkpt lat="42.80461" lon="0.13796">
        <ele>2402</ele>
        <time>2023-06-08T04:23:10Z</time>
      </trkpt>
      <trkpt lat="42.8046" lon="0.13792">
        <ele>2403</ele>
        <time>2023-06-08T04:23:14Z</time>
      </trkpt>
      <trkpt lat="42.80451" lon="0.13784">
        <ele>2405</ele>
        <time>2023-06-08T04:23:29Z</time>
      </trkpt>
      <trkpt lat="42.80453" lon="0.13771">
        <ele>2407</ele>
        <time>2023-06-08T04:23:44Z</time>
      </trkpt>
      <trkpt lat="42.80446" lon="0.13764">
        <ele>2411</ele>
        <time>2023-06-08T04:23:57Z</time>
      </trkpt>
      <trkpt lat="42.8044" lon="0.13759">
        <ele>2410</ele>
        <time>2023-06-08T04:24:07Z</time>
      </trkpt>
      <trkpt lat="42.80437" lon="0.1375">
        <ele>2411</ele>
        <time>2023-06-08T04:24:19Z</time>
      </trkpt>
      <trkpt lat="42.80428" lon="0.13741">
        <ele>2414</ele>
        <time>2023-06-08T04:24:35Z</time>
      </trkpt>
      <trkpt lat="42.80423" lon="0.13736">
        <ele>2416</ele>
        <time>2023-06-08T04:24:50Z</time>
      </trkpt>
      <trkpt lat="42.80412" lon="0.13726">
        <ele>2418</ele>
        <time>2023-06-08T04:25:03Z</time>
      </trkpt>
      <trkpt lat="42.80407" lon="0.13721">
        <ele>2420</ele>
        <time>2023-06-08T04:25:16Z</time>
      </trkpt>
      <trkpt lat="42.80399" lon="0.13714">
        <ele>2422</ele>
        <time>2023-06-08T04:25:32Z</time>
      </trkpt>
      <trkpt lat="42.80386" lon="0.13708">
        <ele>2424</ele>
        <time>2023-06-08T04:25:49Z</time>
      </trkpt>
      <trkpt lat="42.80381" lon="0.13696">
        <ele>2426</ele>
        <time>2023-06-08T04:26:09Z</time>
      </trkpt>
      <trkpt lat="42.80373" lon="0.13689">
        <ele>2428</ele>
        <time>2023-06-08T04:26:25Z</time>
      </trkpt>
      <trkpt lat="42.80372" lon="0.13683">
        <ele>2431</ele>
        <time>2023-06-08T04:26:38Z</time>
      </trkpt>
      <trkpt lat="42.80362" lon="0.1368">
        <ele>2432</ele>
        <time>2023-06-08T04:26:53Z</time>
      </trkpt>
      <trkpt lat="42.80357" lon="0.1367">
        <ele>2435</ele>
        <time>2023-06-08T04:27:07Z</time>
      </trkpt>
      <trkpt lat="42.8035" lon="0.13666">
        <ele>2437</ele>
        <time>2023-06-08T04:27:22Z</time>
      </trkpt>
      <trkpt lat="42.80339" lon="0.13667">
        <ele>2439</ele>
        <time>2023-06-08T04:27:35Z</time>
      </trkpt>
      <trkpt lat="42.80331" lon="0.13662">
        <ele>2440</ele>
        <time>2023-06-08T04:27:48Z</time>
      </trkpt>
      <trkpt lat="42.80328" lon="0.13657">
        <ele>2442</ele>
        <time>2023-06-08T04:28:02Z</time>
      </trkpt>
      <trkpt lat="42.80318" lon="0.13654">
        <ele>2444</ele>
        <time>2023-06-08T04:28:15Z</time>
      </trkpt>
      <trkpt lat="42.80311" lon="0.13648">
        <ele>2446</ele>
        <time>2023-06-08T04:28:30Z</time>
      </trkpt>
      <trkpt lat="42.80306" lon="0.13643">
        <ele>2448</ele>
        <time>2023-06-08T04:28:44Z</time>
      </trkpt>
      <trkpt lat="42.80301" lon="0.13637">
        <ele>2450</ele>
        <time>2023-06-08T04:28:57Z</time>
      </trkpt>
      <trkpt lat="42.80296" lon="0.13632">
        <ele>2451</ele>
        <time>2023-06-08T04:29:09Z</time>
      </trkpt>
      <trkpt lat="42.8029" lon="0.13627">
        <ele>2454</ele>
        <time>2023-06-08T04:29:26Z</time>
      </trkpt>
      <trkpt lat="42.80284" lon="0.13624">
        <ele>2456</ele>
        <time>2023-06-08T04:29:39Z</time>
      </trkpt>
      <trkpt lat="42.80274" lon="0.13619">
        <ele>2458</ele>
        <time>2023-06-08T04:29:55Z</time>
      </trkpt>
      <trkpt lat="42.80268" lon="0.13616">
        <ele>2460</ele>
        <time>2023-06-08T04:30:07Z</time>
      </trkpt>
      <trkpt lat="42.80265" lon="0.13614">
        <ele>2461</ele>
        <time>2023-06-08T04:30:13Z</time>
      </trkpt>
      <trkpt lat="42.80256" lon="0.1361">
        <ele>2462</ele>
        <time>2023-06-08T04:30:29Z</time>
      </trkpt>
      <trkpt lat="42.80247" lon="0.13608">
        <ele>2464</ele>
        <time>2023-06-08T04:30:43Z</time>
      </trkpt>
      <trkpt lat="42.80242" lon="0.13604">
        <ele>2466</ele>
        <time>2023-06-08T04:30:58Z</time>
      </trkpt>
      <trkpt lat="42.8024" lon="0.13599">
        <ele>2469</ele>
        <time>2023-06-08T04:31:13Z</time>
      </trkpt>
      <trkpt lat="42.80238" lon="0.13591">
        <ele>2471</ele>
        <time>2023-06-08T04:31:29Z</time>
      </trkpt>
      <trkpt lat="42.8023" lon="0.13585">
        <ele>2473</ele>
        <time>2023-06-08T04:31:44Z</time>
      </trkpt>
      <trkpt lat="42.80223" lon="0.13585">
        <ele>2476</ele>
        <time>2023-06-08T04:32:00Z</time>
      </trkpt>
      <trkpt lat="42.80219" lon="0.1358">
        <ele>2478</ele>
        <time>2023-06-08T04:32:16Z</time>
      </trkpt>
      <trkpt lat="42.80213" lon="0.1358">
        <ele>2479</ele>
        <time>2023-06-08T04:32:30Z</time>
      </trkpt>
      <trkpt lat="42.80211" lon="0.1358">
        <ele>2480</ele>
        <time>2023-06-08T04:32:44Z</time>
      </trkpt>
      <trkpt lat="42.80211" lon="0.13579">
        <ele>2480</ele>
        <time>2023-06-08T04:33:09Z</time>
      </trkpt>
      <trkpt lat="42.80206" lon="0.13576">
        <ele>2481</ele>
        <time>2023-06-08T04:33:26Z</time>
      </trkpt>
      <trkpt lat="42.802" lon="0.13584">
        <ele>2485</ele>
        <time>2023-06-08T04:33:44Z</time>
      </trkpt>
      <trkpt lat="42.80197" lon="0.13597">
        <ele>2487</ele>
        <time>2023-06-08T04:34:00Z</time>
      </trkpt>
      <trkpt lat="42.8019" lon="0.13603">
        <ele>2490</ele>
        <time>2023-06-08T04:34:20Z</time>
      </trkpt>
      <trkpt lat="42.80189" lon="0.1361">
        <ele>2493</ele>
        <time>2023-06-08T04:34:35Z</time>
      </trkpt>
      <trkpt lat="42.80188" lon="0.13619">
        <ele>2495</ele>
        <time>2023-06-08T04:34:49Z</time>
      </trkpt>
      <trkpt lat="42.80187" lon="0.13627">
        <ele>2497</ele>
        <time>2023-06-08T04:35:01Z</time>
      </trkpt>
      <trkpt lat="42.80187" lon="0.13636">
        <ele>2499</ele>
        <time>2023-06-08T04:35:13Z</time>
      </trkpt>
      <trkpt lat="42.80186" lon="0.13641">
        <ele>2500</ele>
        <time>2023-06-08T04:35:21Z</time>
      </trkpt>
      <trkpt lat="42.80183" lon="0.13649">
        <ele>2501</ele>
        <time>2023-06-08T04:35:37Z</time>
      </trkpt>
      <trkpt lat="42.80183" lon="0.13654">
        <ele>2502</ele>
        <time>2023-06-08T04:35:55Z</time>
      </trkpt>
      <trkpt lat="42.80182" lon="0.1365">
        <ele>2503</ele>
        <time>2023-06-08T04:36:06Z</time>
      </trkpt>
      <trkpt lat="42.8018" lon="0.13649">
        <ele>2503</ele>
        <time>2023-06-08T04:36:08Z</time>
      </trkpt>
      <trkpt lat="42.80174" lon="0.13642">
        <ele>2505</ele>
        <time>2023-06-08T04:36:20Z</time>
      </trkpt>
      <trkpt lat="42.80167" lon="0.13639">
        <ele>2507</ele>
        <time>2023-06-08T04:36:32Z</time>
      </trkpt>
      <trkpt lat="42.80161" lon="0.13635">
        <ele>2508</ele>
        <time>2023-06-08T04:36:43Z</time>
      </trkpt>
      <trkpt lat="42.80153" lon="0.1363">
        <ele>2511</ele>
        <time>2023-06-08T04:36:58Z</time>
      </trkpt>
      <trkpt lat="42.80145" lon="0.13625">
        <ele>2513</ele>
        <time>2023-06-08T04:37:11Z</time>
      </trkpt>
      <trkpt lat="42.80139" lon="0.13619">
        <ele>2514</ele>
        <time>2023-06-08T04:37:24Z</time>
      </trkpt>
      <trkpt lat="42.80133" lon="0.13612">
        <ele>2517</ele>
        <time>2023-06-08T04:37:42Z</time>
      </trkpt>
      <trkpt lat="42.80122" lon="0.13609">
        <ele>2519</ele>
        <time>2023-06-08T04:37:55Z</time>
      </trkpt>
      <trkpt lat="42.80121" lon="0.13607">
        <ele>2519</ele>
        <time>2023-06-08T04:37:59Z</time>
      </trkpt>
      <trkpt lat="42.80119" lon="0.13599">
        <ele>2521</ele>
        <time>2023-06-08T04:38:10Z</time>
      </trkpt>
      <trkpt lat="42.80119" lon="0.13591">
        <ele>2523</ele>
        <time>2023-06-08T04:38:24Z</time>
      </trkpt>
      <trkpt lat="42.80121" lon="0.13572">
        <ele>2526</ele>
        <time>2023-06-08T04:39:11Z</time>
      </trkpt>
      <trkpt lat="42.80102" lon="0.13587">
        <ele>2539</ele>
        <time>2023-06-08T04:43:08Z</time>
      </trkpt>
      <trkpt lat="42.80105" lon="0.13575">
        <ele>2539</ele>
        <time>2023-06-08T04:43:20Z</time>
      </trkpt>
      <trkpt lat="42.80106" lon="0.13566">
        <ele>2541</ele>
        <time>2023-06-08T04:43:34Z</time>
      </trkpt>
      <trkpt lat="42.80107" lon="0.13561">
        <ele>2542</ele>
        <time>2023-06-08T04:43:47Z</time>
      </trkpt>
      <trkpt lat="42.80107" lon="0.13567">
        <ele>2544</ele>
        <time>2023-06-08T04:44:01Z</time>
      </trkpt>
      <trkpt lat="42.80103" lon="0.13574">
        <ele>2546</ele>
        <time>2023-06-08T04:44:14Z</time>
      </trkpt>
      <trkpt lat="42.80098" lon="0.13576">
        <ele>2546</ele>
        <time>2023-06-08T04:44:28Z</time>
      </trkpt>
      <trkpt lat="42.80097" lon="0.13563">
        <ele>2548</ele>
        <time>2023-06-08T04:44:48Z</time>
      </trkpt>
      <trkpt lat="42.80096" lon="0.13554">
        <ele>2550</ele>
        <time>2023-06-08T04:45:23Z</time>
      </trkpt>
      <trkpt lat="42.80096" lon="0.13561">
        <ele>2551</ele>
        <time>2023-06-08T04:45:38Z</time>
      </trkpt>
      <trkpt lat="42.80083" lon="0.13579">
        <ele>2556</ele>
        <time>2023-06-08T04:46:20Z</time>
      </trkpt>
      <trkpt lat="42.80085" lon="0.1357">
        <ele>2556</ele>
        <time>2023-06-08T04:46:39Z</time>
      </trkpt>
      <trkpt lat="42.80084" lon="0.13564">
        <ele>2556</ele>
        <time>2023-06-08T04:46:56Z</time>
      </trkpt>
      <trkpt lat="42.80082" lon="0.13557">
        <ele>2558</ele>
        <time>2023-06-08T04:47:10Z</time>
      </trkpt>
      <trkpt lat="42.80083" lon="0.13545">
        <ele>2560</ele>
        <time>2023-06-08T04:47:28Z</time>
      </trkpt>
      <trkpt lat="42.80087" lon="0.13534">
        <ele>2563</ele>
        <time>2023-06-08T04:47:45Z</time>
      </trkpt>
      <trkpt lat="42.80091" lon="0.13526">
        <ele>2565</ele>
        <time>2023-06-08T04:48:00Z</time>
      </trkpt>
      <trkpt lat="42.80084" lon="0.13525">
        <ele>2567</ele>
        <time>2023-06-08T04:48:31Z</time>
      </trkpt>
      <trkpt lat="42.80089" lon="0.13518">
        <ele>2569</ele>
        <time>2023-06-08T04:48:44Z</time>
      </trkpt>
      <trkpt lat="42.80091" lon="0.1351">
        <ele>2571</ele>
        <time>2023-06-08T04:48:59Z</time>
      </trkpt>
      <trkpt lat="42.80084" lon="0.13515">
        <ele>2572</ele>
        <time>2023-06-08T04:49:18Z</time>
      </trkpt>
      <trkpt lat="42.80083" lon="0.13512">
        <ele>2573</ele>
        <time>2023-06-08T04:49:31Z</time>
      </trkpt>
      <trkpt lat="42.80094" lon="0.13502">
        <ele>2575</ele>
        <time>2023-06-08T04:49:47Z</time>
      </trkpt>
      <trkpt lat="42.80094" lon="0.13493">
        <ele>2576</ele>
        <time>2023-06-08T04:50:02Z</time>
      </trkpt>
      <trkpt lat="42.80095" lon="0.13487">
        <ele>2579</ele>
        <time>2023-06-08T04:50:18Z</time>
      </trkpt>
      <trkpt lat="42.80095" lon="0.13472">
        <ele>2579</ele>
        <time>2023-06-08T04:50:32Z</time>
      </trkpt>
      <trkpt lat="42.80103" lon="0.13468">
        <ele>2580</ele>
        <time>2023-06-08T04:50:48Z</time>
      </trkpt>
      <trkpt lat="42.80109" lon="0.13468">
        <ele>2581</ele>
        <time>2023-06-08T04:51:04Z</time>
      </trkpt>
      <trkpt lat="42.80114" lon="0.13465">
        <ele>2582</ele>
        <time>2023-06-08T04:51:18Z</time>
      </trkpt>
      <trkpt lat="42.80115" lon="0.13462">
        <ele>2583</ele>
        <time>2023-06-08T04:51:31Z</time>
      </trkpt>
      <trkpt lat="42.8012" lon="0.13459">
        <ele>2584</ele>
        <time>2023-06-08T04:51:46Z</time>
      </trkpt>
      <trkpt lat="42.80125" lon="0.13449">
        <ele>2591</ele>
        <time>2023-06-08T04:53:10Z</time>
      </trkpt>
      <trkpt lat="42.80135" lon="0.13432">
        <ele>2593</ele>
        <time>2023-06-08T04:53:25Z</time>
      </trkpt>
      <trkpt lat="42.80134" lon="0.13419">
        <ele>2594</ele>
        <time>2023-06-08T04:53:38Z</time>
      </trkpt>
      <trkpt lat="42.80126" lon="0.13427">
        <ele>2597</ele>
        <time>2023-06-08T04:53:53Z</time>
      </trkpt>
      <trkpt lat="42.80127" lon="0.13419">
        <ele>2598</ele>
        <time>2023-06-08T04:54:10Z</time>
      </trkpt>
      <trkpt lat="42.80129" lon="0.13411">
        <ele>2599</ele>
        <time>2023-06-08T04:54:19Z</time>
      </trkpt>
      <trkpt lat="42.80134" lon="0.13406">
        <ele>2607</ele>
        <time>2023-06-08T04:55:42Z</time>
      </trkpt>
      <trkpt lat="42.80133" lon="0.13403">
        <ele>2609</ele>
        <time>2023-06-08T04:55:55Z</time>
      </trkpt>
      <trkpt lat="42.80137" lon="0.13393">
        <ele>2610</ele>
        <time>2023-06-08T04:56:13Z</time>
      </trkpt>
      <trkpt lat="42.80139" lon="0.13384">
        <ele>2612</ele>
        <time>2023-06-08T04:56:26Z</time>
      </trkpt>
      <trkpt lat="42.80138" lon="0.13387">
        <ele>2612</ele>
        <time>2023-06-08T04:56:41Z</time>
      </trkpt>
      <trkpt lat="42.80129" lon="0.13406">
        <ele>2613</ele>
        <time>2023-06-08T04:57:02Z</time>
      </trkpt>
      <trkpt lat="42.80123" lon="0.13407">
        <ele>2615</ele>
        <time>2023-06-08T04:57:17Z</time>
      </trkpt>
      <trkpt lat="42.8013" lon="0.13387">
        <ele>2615</ele>
        <time>2023-06-08T04:57:34Z</time>
      </trkpt>
      <trkpt lat="42.80133" lon="0.13379">
        <ele>2617</ele>
        <time>2023-06-08T04:57:49Z</time>
      </trkpt>
      <trkpt lat="42.80128" lon="0.13386">
        <ele>2618</ele>
        <time>2023-06-08T04:58:06Z</time>
      </trkpt>
      <trkpt lat="42.80124" lon="0.13393">
        <ele>2621</ele>
        <time>2023-06-08T04:58:22Z</time>
      </trkpt>
      <trkpt lat="42.80121" lon="0.13396">
        <ele>2622</ele>
        <time>2023-06-08T04:58:30Z</time>
      </trkpt>
      <trkpt lat="42.80118" lon="0.13397">
        <ele>2623</ele>
        <time>2023-06-08T04:58:33Z</time>
      </trkpt>
      <trkpt lat="42.80107" lon="0.13398">
        <ele>2625</ele>
        <time>2023-06-08T04:58:48Z</time>
      </trkpt>
      <trkpt lat="42.80091" lon="0.134">
        <ele>2627</ele>
        <time>2023-06-08T04:59:08Z</time>
      </trkpt>
      <trkpt lat="42.80085" lon="0.13405">
        <ele>2629</ele>
        <time>2023-06-08T04:59:24Z</time>
      </trkpt>
      <trkpt lat="42.80078" lon="0.13412">
        <ele>2629</ele>
        <time>2023-06-08T04:59:43Z</time>
      </trkpt>
      <trkpt lat="42.80071" lon="0.13413">
        <ele>2632</ele>
        <time>2023-06-08T04:59:58Z</time>
      </trkpt>
      <trkpt lat="42.80068" lon="0.13413">
        <ele>2634</ele>
        <time>2023-06-08T05:00:15Z</time>
      </trkpt>
      <trkpt lat="42.80063" lon="0.13408">
        <ele>2636</ele>
        <time>2023-06-08T05:00:28Z</time>
      </trkpt>
      <trkpt lat="42.80064" lon="0.13391">
        <ele>2636</ele>
        <time>2023-06-08T05:00:49Z</time>
      </trkpt>
      <trkpt lat="42.80066" lon="0.13378">
        <ele>2638</ele>
        <time>2023-06-08T05:01:05Z</time>
      </trkpt>
      <trkpt lat="42.80067" lon="0.13376">
        <ele>2645</ele>
        <time>2023-06-08T05:02:20Z</time>
      </trkpt>
      <trkpt lat="42.80069" lon="0.13362">
        <ele>2645</ele>
        <time>2023-06-08T05:02:36Z</time>
      </trkpt>
      <trkpt lat="42.80067" lon="0.13363">
        <ele>2647</ele>
        <time>2023-06-08T05:02:51Z</time>
      </trkpt>
      <trkpt lat="42.8006" lon="0.13371">
        <ele>2647</ele>
        <time>2023-06-08T05:03:08Z</time>
      </trkpt>
      <trkpt lat="42.80056" lon="0.13371">
        <ele>2649</ele>
        <time>2023-06-08T05:03:14Z</time>
      </trkpt>
      <trkpt lat="42.80052" lon="0.13376">
        <ele>2650</ele>
        <time>2023-06-08T05:03:30Z</time>
      </trkpt>
      <trkpt lat="42.80051" lon="0.13376">
        <ele>2650</ele>
        <time>2023-06-08T05:03:31Z</time>
      </trkpt>
      <trkpt lat="42.80048" lon="0.13376">
        <ele>2650</ele>
        <time>2023-06-08T05:03:45Z</time>
      </trkpt>
      <trkpt lat="42.80044" lon="0.13377">
        <ele>2652</ele>
        <time>2023-06-08T05:04:01Z</time>
      </trkpt>
      <trkpt lat="42.80045" lon="0.13367">
        <ele>2653</ele>
        <time>2023-06-08T05:04:14Z</time>
      </trkpt>
      <trkpt lat="42.8005" lon="0.1336">
        <ele>2653</ele>
        <time>2023-06-08T05:04:24Z</time>
      </trkpt>
      <trkpt lat="42.8006" lon="0.13343">
        <ele>2655</ele>
        <time>2023-06-08T05:04:41Z</time>
      </trkpt>
      <trkpt lat="42.80061" lon="0.13336">
        <ele>2658</ele>
        <time>2023-06-08T05:04:55Z</time>
      </trkpt>
      <trkpt lat="42.80063" lon="0.13331">
        <ele>2660</ele>
        <time>2023-06-08T05:05:07Z</time>
      </trkpt>
      <trkpt lat="42.80059" lon="0.13332">
        <ele>2662</ele>
        <time>2023-06-08T05:05:33Z</time>
      </trkpt>
      <trkpt lat="42.80037" lon="0.13337">
        <ele>2666</ele>
        <time>2023-06-08T05:06:04Z</time>
      </trkpt>
      <trkpt lat="42.80025" lon="0.13346">
        <ele>2669</ele>
        <time>2023-06-08T05:06:22Z</time>
      </trkpt>
      <trkpt lat="42.80018" lon="0.13345">
        <ele>2671</ele>
        <time>2023-06-08T05:06:37Z</time>
      </trkpt>
      <trkpt lat="42.80009" lon="0.13354">
        <ele>2672</ele>
        <time>2023-06-08T05:07:30Z</time>
      </trkpt>
      <trkpt lat="42.79992" lon="0.13361">
        <ele>2683</ele>
        <time>2023-06-08T05:11:17Z</time>
      </trkpt>
      <trkpt lat="42.79987" lon="0.13284">
        <ele>2694</ele>
        <time>2023-06-08T05:12:57Z</time>
      </trkpt>
      <trkpt lat="42.79988" lon="0.13286">
        <ele>2695</ele>
        <time>2023-06-08T05:13:11Z</time>
      </trkpt>
      <trkpt lat="42.79974" lon="0.13293">
        <ele>2705</ele>
        <time>2023-06-08T05:14:56Z</time>
      </trkpt>
      <trkpt lat="42.79963" lon="0.13259">
        <ele>2709</ele>
        <time>2023-06-08T05:15:24Z</time>
      </trkpt>
      <trkpt lat="42.79954" lon="0.13273">
        <ele>2715</ele>
        <time>2023-06-08T05:16:14Z</time>
      </trkpt>
      <trkpt lat="42.79948" lon="0.13278">
        <ele>2718</ele>
        <time>2023-06-08T05:16:32Z</time>
      </trkpt>
      <trkpt lat="42.79941" lon="0.13281">
        <ele>2720</ele>
        <time>2023-06-08T05:16:48Z</time>
      </trkpt>
      <trkpt lat="42.79937" lon="0.13271">
        <ele>2721</ele>
        <time>2023-06-08T05:17:04Z</time>
      </trkpt>
      <trkpt lat="42.79933" lon="0.13253">
        <ele>2723</ele>
        <time>2023-06-08T05:17:20Z</time>
      </trkpt>
      <trkpt lat="42.79932" lon="0.1324">
        <ele>2724</ele>
        <time>2023-06-08T05:17:33Z</time>
      </trkpt>
      <trkpt lat="42.79933" lon="0.13227">
        <ele>2726</ele>
        <time>2023-06-08T05:17:48Z</time>
      </trkpt>
      <trkpt lat="42.79933" lon="0.13221">
        <ele>2728</ele>
        <time>2023-06-08T05:18:03Z</time>
      </trkpt>
      <trkpt lat="42.79937" lon="0.13214">
        <ele>2729</ele>
        <time>2023-06-08T05:18:17Z</time>
      </trkpt>
      <trkpt lat="42.79938" lon="0.13207">
        <ele>2741</ele>
        <time>2023-06-08T05:20:12Z</time>
      </trkpt>
      <trkpt lat="42.79946" lon="0.13163">
        <ele>2753</ele>
        <time>2023-06-08T05:22:09Z</time>
      </trkpt>
      <trkpt lat="42.79957" lon="0.1314">
        <ele>2770</ele>
        <time>2023-06-08T05:25:22Z</time>
      </trkpt>
      <trkpt lat="42.79957" lon="0.13135">
        <ele>2770</ele>
        <time>2023-06-08T05:25:40Z</time>
      </trkpt>
      <trkpt lat="42.79959" lon="0.1313">
        <ele>2772</ele>
        <time>2023-06-08T05:25:54Z</time>
      </trkpt>
      <trkpt lat="42.7996" lon="0.13098">
        <ele>2777</ele>
        <time>2023-06-08T05:26:37Z</time>
      </trkpt>
      <trkpt lat="42.79963" lon="0.13094">
        <ele>2778</ele>
        <time>2023-06-08T05:26:44Z</time>
      </trkpt>
      <trkpt lat="42.79952" lon="0.13097">
        <ele>2783</ele>
        <time>2023-06-08T05:27:44Z</time>
      </trkpt>
      <trkpt lat="42.79953" lon="0.13087">
        <ele>2784</ele>
        <time>2023-06-08T05:27:56Z</time>
      </trkpt>
      <trkpt lat="42.79952" lon="0.13086">
        <ele>2786</ele>
        <time>2023-06-08T05:28:18Z</time>
      </trkpt>
      <trkpt lat="42.79948" lon="0.13098">
        <ele>2789</ele>
        <time>2023-06-08T05:29:04Z</time>
      </trkpt>
      <trkpt lat="42.7995" lon="0.13089">
        <ele>2791</ele>
        <time>2023-06-08T05:29:16Z</time>
      </trkpt>
      <trkpt lat="42.79944" lon="0.13059">
        <ele>2795</ele>
        <time>2023-06-08T05:29:43Z</time>
      </trkpt>
      <trkpt lat="42.79937" lon="0.13086">
        <ele>2801</ele>
        <time>2023-06-08T05:30:30Z</time>
      </trkpt>
      <trkpt lat="42.79939" lon="0.13074">
        <ele>2801</ele>
        <time>2023-06-08T05:30:46Z</time>
      </trkpt>
      <trkpt lat="42.79936" lon="0.13048">
        <ele>2817</ele>
        <time>2023-06-08T05:33:21Z</time>
      </trkpt>
      <trkpt lat="42.79927" lon="0.13053">
        <ele>2820</ele>
        <time>2023-06-08T05:33:36Z</time>
      </trkpt>
      <trkpt lat="42.79921" lon="0.13055">
        <ele>2821</ele>
        <time>2023-06-08T05:33:51Z</time>
      </trkpt>
      <trkpt lat="42.79936" lon="0.13021">
        <ele>2833</ele>
        <time>2023-06-08T05:36:44Z</time>
      </trkpt>
      <trkpt lat="42.79919" lon="0.13033">
        <ele>2837</ele>
        <time>2023-06-08T05:37:16Z</time>
      </trkpt>
      <trkpt lat="42.79914" lon="0.13035">
        <ele>2838</ele>
        <time>2023-06-08T05:37:34Z</time>
      </trkpt>
      <trkpt lat="42.79898" lon="0.13009">
        <ele>2845</ele>
        <time>2023-06-08T05:38:41Z</time>
      </trkpt>
      <trkpt lat="42.7989" lon="0.13031">
        <ele>2849</ele>
        <time>2023-06-08T05:39:23Z</time>
      </trkpt>
      <trkpt lat="42.79883" lon="0.13038">
        <ele>2851</ele>
        <time>2023-06-08T05:39:38Z</time>
      </trkpt>
      <trkpt lat="42.79877" lon="0.13042">
        <ele>2853</ele>
        <time>2023-06-08T05:39:53Z</time>
      </trkpt>
      <trkpt lat="42.7987" lon="0.13047">
        <ele>2855</ele>
        <time>2023-06-08T05:40:10Z</time>
      </trkpt>
      <trkpt lat="42.79868" lon="0.13049">
        <ele>2857</ele>
        <time>2023-06-08T05:40:26Z</time>
      </trkpt>
      <trkpt lat="42.79865" lon="0.13054">
        <ele>2856</ele>
        <time>2023-06-08T05:40:48Z</time>
      </trkpt>
      <trkpt lat="42.79858" lon="0.13059">
        <ele>2859</ele>
        <time>2023-06-08T05:41:04Z</time>
      </trkpt>
      <trkpt lat="42.79852" lon="0.13067">
        <ele>2861</ele>
        <time>2023-06-08T05:41:17Z</time>
      </trkpt>
      <trkpt lat="42.79847" lon="0.13073">
        <ele>2863</ele>
        <time>2023-06-08T05:41:33Z</time>
      </trkpt>
      <trkpt lat="42.79839" lon="0.13078">
        <ele>2867</ele>
        <time>2023-06-08T05:41:48Z</time>
      </trkpt>
      <trkpt lat="42.79833" lon="0.13088">
        <ele>2869</ele>
        <time>2023-06-08T05:42:02Z</time>
      </trkpt>
      <trkpt lat="42.79828" lon="0.13095">
        <ele>2871</ele>
        <time>2023-06-08T05:42:17Z</time>
      </trkpt>
      <trkpt lat="42.79825" lon="0.13099">
        <ele>2871</ele>
        <time>2023-06-08T05:42:37Z</time>
      </trkpt>
      <trkpt lat="42.79824" lon="0.13101">
        <ele>2872</ele>
        <time>2023-06-08T05:42:59Z</time>
      </trkpt>
      <trkpt lat="42.79819" lon="0.13111">
        <ele>2874</ele>
        <time>2023-06-08T05:43:12Z</time>
      </trkpt>
      <trkpt lat="42.79815" lon="0.13112">
        <ele>2876</ele>
        <time>2023-06-08T05:43:29Z</time>
      </trkpt>
      <trkpt lat="42.79813" lon="0.13099">
        <ele>2878</ele>
        <time>2023-06-08T05:43:45Z</time>
      </trkpt>
      <trkpt lat="42.79809" lon="0.13086">
        <ele>2881</ele>
        <time>2023-06-08T05:44:00Z</time>
      </trkpt>
      <trkpt lat="42.7981" lon="0.13078">
        <ele>2883</ele>
        <time>2023-06-08T05:44:12Z</time>
      </trkpt>
      <trkpt lat="42.79811" lon="0.13085">
        <ele>2886</ele>
        <time>2023-06-08T05:44:55Z</time>
      </trkpt>
      <trkpt lat="42.79804" lon="0.13092">
        <ele>2888</ele>
        <time>2023-06-08T05:45:10Z</time>
      </trkpt>
      <trkpt lat="42.79797" lon="0.13096">
        <ele>2891</ele>
        <time>2023-06-08T05:45:27Z</time>
      </trkpt>
      <trkpt lat="42.79792" lon="0.13105">
        <ele>2893</ele>
        <time>2023-06-08T05:45:41Z</time>
      </trkpt>
      <trkpt lat="42.79785" lon="0.13112">
        <ele>2895</ele>
        <time>2023-06-08T05:45:53Z</time>
      </trkpt>
      <trkpt lat="42.79779" lon="0.13114">
        <ele>2898</ele>
        <time>2023-06-08T05:46:08Z</time>
      </trkpt>
      <trkpt lat="42.79776" lon="0.13116">
        <ele>2898</ele>
        <time>2023-06-08T05:46:25Z</time>
      </trkpt>
      <trkpt lat="42.79777" lon="0.1311">
        <ele>2899</ele>
        <time>2023-06-08T05:46:42Z</time>
      </trkpt>
      <trkpt lat="42.79777" lon="0.13105">
        <ele>2900</ele>
        <time>2023-06-08T05:46:58Z</time>
      </trkpt>
      <trkpt lat="42.79776" lon="0.13097">
        <ele>2902</ele>
        <time>2023-06-08T05:47:10Z</time>
      </trkpt>
      <trkpt lat="42.79777" lon="0.13086">
        <ele>2904</ele>
        <time>2023-06-08T05:47:25Z</time>
      </trkpt>
      <trkpt lat="42.79776" lon="0.13077">
        <ele>2906</ele>
        <time>2023-06-08T05:47:39Z</time>
      </trkpt>
      <trkpt lat="42.79775" lon="0.13065">
        <ele>2908</ele>
        <time>2023-06-08T05:47:53Z</time>
      </trkpt>
      <trkpt lat="42.79778" lon="0.13062">
        <ele>2909</ele>
        <time>2023-06-08T05:48:07Z</time>
      </trkpt>
      <trkpt lat="42.79777" lon="0.13073">
        <ele>2910</ele>
        <time>2023-06-08T05:48:24Z</time>
      </trkpt>
      <trkpt lat="42.79769" lon="0.13082">
        <ele>2912</ele>
        <time>2023-06-08T05:48:41Z</time>
      </trkpt>
      <trkpt lat="42.79762" lon="0.13087">
        <ele>2915</ele>
        <time>2023-06-08T05:48:58Z</time>
      </trkpt>
      <trkpt lat="42.79758" lon="0.13094">
        <ele>2917</ele>
        <time>2023-06-08T05:49:08Z</time>
      </trkpt>
      <trkpt lat="42.79752" lon="0.13105">
        <ele>2919</ele>
        <time>2023-06-08T05:49:24Z</time>
      </trkpt>
      <trkpt lat="42.79749" lon="0.13091">
        <ele>2919</ele>
        <time>2023-06-08T05:49:44Z</time>
      </trkpt>
      <trkpt lat="42.79748" lon="0.1308">
        <ele>2920</ele>
        <time>2023-06-08T05:49:56Z</time>
      </trkpt>
      <trkpt lat="42.79745" lon="0.13073">
        <ele>2922</ele>
        <time>2023-06-08T05:50:14Z</time>
      </trkpt>
      <trkpt lat="42.79745" lon="0.13063">
        <ele>2924</ele>
        <time>2023-06-08T05:50:28Z</time>
      </trkpt>
      <trkpt lat="42.79747" lon="0.13062">
        <ele>2925</ele>
        <time>2023-06-08T05:50:42Z</time>
      </trkpt>
      <trkpt lat="42.79743" lon="0.13068">
        <ele>2927</ele>
        <time>2023-06-08T05:51:09Z</time>
      </trkpt>
      <trkpt lat="42.79738" lon="0.1307">
        <ele>2929</ele>
        <time>2023-06-08T05:51:21Z</time>
      </trkpt>
      <trkpt lat="42.79734" lon="0.13074">
        <ele>2930</ele>
        <time>2023-06-08T05:51:33Z</time>
      </trkpt>
      <trkpt lat="42.79731" lon="0.13081">
        <ele>2933</ele>
        <time>2023-06-08T05:51:47Z</time>
      </trkpt>
      <trkpt lat="42.79732" lon="0.13086">
        <ele>2933</ele>
        <time>2023-06-08T05:52:02Z</time>
      </trkpt>
      <trkpt lat="42.79728" lon="0.13092">
        <ele>2935</ele>
        <time>2023-06-08T05:52:14Z</time>
      </trkpt>
      <trkpt lat="42.79726" lon="0.13097">
        <ele>2936</ele>
        <time>2023-06-08T05:52:29Z</time>
      </trkpt>
      <trkpt lat="42.79724" lon="0.13093">
        <ele>2937</ele>
        <time>2023-06-08T05:52:50Z</time>
      </trkpt>
      <trkpt lat="42.79721" lon="0.13083">
        <ele>2938</ele>
        <time>2023-06-08T05:53:05Z</time>
      </trkpt>
      <trkpt lat="42.7972" lon="0.13065">
        <ele>2940</ele>
        <time>2023-06-08T05:53:23Z</time>
      </trkpt>
      <trkpt lat="42.79722" lon="0.13054">
        <ele>2940</ele>
        <time>2023-06-08T05:53:37Z</time>
      </trkpt>
      <trkpt lat="42.79727" lon="0.13049">
        <ele>2941</ele>
        <time>2023-06-08T05:53:54Z</time>
      </trkpt>
      <trkpt lat="42.79729" lon="0.13046">
        <ele>2942</ele>
        <time>2023-06-08T05:54:09Z</time>
      </trkpt>
      <trkpt lat="42.7973" lon="0.1304">
        <ele>2942</ele>
        <time>2023-06-08T05:54:24Z</time>
      </trkpt>
      <trkpt lat="42.79732" lon="0.13034">
        <ele>2944</ele>
        <time>2023-06-08T05:54:37Z</time>
      </trkpt>
      <trkpt lat="42.79734" lon="0.13028">
        <ele>2945</ele>
        <time>2023-06-08T05:54:53Z</time>
      </trkpt>
      <trkpt lat="42.79739" lon="0.13026">
        <ele>2946</ele>
        <time>2023-06-08T05:55:07Z</time>
      </trkpt>
      <trkpt lat="42.7974" lon="0.13023">
        <ele>2947</ele>
        <time>2023-06-08T05:55:18Z</time>
      </trkpt>
      <trkpt lat="42.79743" lon="0.13019">
        <ele>2948</ele>
        <time>2023-06-08T05:55:33Z</time>
      </trkpt>
      <trkpt lat="42.79746" lon="0.13016">
        <ele>2950</ele>
        <time>2023-06-08T05:55:45Z</time>
      </trkpt>
      <trkpt lat="42.79748" lon="0.13012">
        <ele>2952</ele>
        <time>2023-06-08T05:55:58Z</time>
      </trkpt>
      <trkpt lat="42.7975" lon="0.13011">
        <ele>2953</ele>
        <time>2023-06-08T05:56:20Z</time>
      </trkpt>
      <trkpt lat="42.7975" lon="0.13009">
        <ele>2954</ele>
        <time>2023-06-08T05:56:34Z</time>
      </trkpt>
      <trkpt lat="42.79751" lon="0.13007">
        <ele>2954</ele>
        <time>2023-06-08T05:56:53Z</time>
      </trkpt>
      <trkpt lat="42.79751" lon="0.13007">
        <ele>2955</ele>
        <time>2023-06-08T05:57:10Z</time>
      </trkpt>
      <trkpt lat="42.79749" lon="0.13009">
        <ele>2956</ele>
        <time>2023-06-08T05:57:25Z</time>
      </trkpt>
      <trkpt lat="42.7975" lon="0.13002">
        <ele>2957</ele>
        <time>2023-06-08T05:57:44Z</time>
      </trkpt>
      <trkpt lat="42.7975" lon="0.13002">
        <ele>2957</ele>
        <time>2023-06-08T05:58:09Z</time>
      </trkpt>
      <trkpt lat="42.79751" lon="0.13">
        <ele>2958</ele>
        <time>2023-06-08T05:58:29Z</time>
      </trkpt>
      <trkpt lat="42.79754" lon="0.12994">
        <ele>2960</ele>
        <time>2023-06-08T05:58:42Z</time>
      </trkpt>
      <trkpt lat="42.79754" lon="0.1299">
        <ele>2960</ele>
        <time>2023-06-08T05:58:57Z</time>
      </trkpt>
      <trkpt lat="42.79756" lon="0.12983">
        <ele>2963</ele>
        <time>2023-06-08T05:59:11Z</time>
      </trkpt>
      <trkpt lat="42.79757" lon="0.12974">
        <ele>2964</ele>
        <time>2023-06-08T05:59:26Z</time>
      </trkpt>
      <trkpt lat="42.7976" lon="0.12964">
        <ele>2967</ele>
        <time>2023-06-08T05:59:40Z</time>
      </trkpt>
      <trkpt lat="42.79764" lon="0.12954">
        <ele>2969</ele>
        <time>2023-06-08T05:59:59Z</time>
      </trkpt>
      <trkpt lat="42.79764" lon="0.12953">
        <ele>2970</ele>
        <time>2023-06-08T06:00:15Z</time>
      </trkpt>
      <trkpt lat="42.79764" lon="0.12949">
        <ele>2971</ele>
        <time>2023-06-08T06:00:30Z</time>
      </trkpt>
      <trkpt lat="42.79764" lon="0.12956">
        <ele>2971</ele>
        <time>2023-06-08T06:00:49Z</time>
      </trkpt>
      <trkpt lat="42.79757" lon="0.1296">
        <ele>2973</ele>
        <time>2023-06-08T06:01:02Z</time>
      </trkpt>
      <trkpt lat="42.79751" lon="0.12959">
        <ele>2974</ele>
        <time>2023-06-08T06:01:18Z</time>
      </trkpt>
      <trkpt lat="42.79753" lon="0.12954">
        <ele>2975</ele>
        <time>2023-06-08T06:01:32Z</time>
      </trkpt>
      <trkpt lat="42.79757" lon="0.12946">
        <ele>2977</ele>
        <time>2023-06-08T06:01:46Z</time>
      </trkpt>
      <trkpt lat="42.79762" lon="0.12935">
        <ele>2979</ele>
        <time>2023-06-08T06:02:05Z</time>
      </trkpt>
      <trkpt lat="42.79765" lon="0.12926">
        <ele>2981</ele>
        <time>2023-06-08T06:02:18Z</time>
      </trkpt>
      <trkpt lat="42.79764" lon="0.12924">
        <ele>2983</ele>
        <time>2023-06-08T06:02:32Z</time>
      </trkpt>
      <trkpt lat="42.79759" lon="0.12931">
        <ele>2985</ele>
        <time>2023-06-08T06:02:48Z</time>
      </trkpt>
      <trkpt lat="42.79756" lon="0.1293">
        <ele>2986</ele>
        <time>2023-06-08T06:03:23Z</time>
      </trkpt>
      <trkpt lat="42.79754" lon="0.12933">
        <ele>2986</ele>
        <time>2023-06-08T06:03:44Z</time>
      </trkpt>
      <trkpt lat="42.79751" lon="0.12934">
        <ele>2988</ele>
        <time>2023-06-08T06:03:58Z</time>
      </trkpt>
      <trkpt lat="42.79752" lon="0.12927">
        <ele>2988</ele>
        <time>2023-06-08T06:04:13Z</time>
      </trkpt>
      <trkpt lat="42.79755" lon="0.12924">
        <ele>2989</ele>
        <time>2023-06-08T06:04:29Z</time>
      </trkpt>
      <trkpt lat="42.79753" lon="0.12922">
        <ele>2990</ele>
        <time>2023-06-08T06:04:47Z</time>
      </trkpt>
      <trkpt lat="42.79748" lon="0.12926">
        <ele>2993</ele>
        <time>2023-06-08T06:05:03Z</time>
      </trkpt>
      <trkpt lat="42.7974" lon="0.1293">
        <ele>2996</ele>
        <time>2023-06-08T06:05:18Z</time>
      </trkpt>
      <trkpt lat="42.79737" lon="0.12932">
        <ele>2997</ele>
        <time>2023-06-08T06:05:35Z</time>
      </trkpt>
      <trkpt lat="42.79729" lon="0.12935">
        <ele>2999</ele>
        <time>2023-06-08T06:05:49Z</time>
      </trkpt>
      <trkpt lat="42.79726" lon="0.12935">
        <ele>3000</ele>
        <time>2023-06-08T06:06:07Z</time>
      </trkpt>
      <trkpt lat="42.79724" lon="0.12934">
        <ele>3001</ele>
        <time>2023-06-08T06:06:21Z</time>
      </trkpt>
      <trkpt lat="42.79721" lon="0.12938">
        <ele>3003</ele>
        <time>2023-06-08T06:06:37Z</time>
      </trkpt>
      <trkpt lat="42.79719" lon="0.12941">
        <ele>3004</ele>
        <time>2023-06-08T06:06:49Z</time>
      </trkpt>
      <trkpt lat="42.79718" lon="0.12938">
        <ele>3004</ele>
        <time>2023-06-08T06:07:04Z</time>
      </trkpt>
      <trkpt lat="42.79718" lon="0.12938">
        <ele>3003</ele>
        <time>2023-06-08T06:07:30Z</time>
      </trkpt>
      <trkpt lat="42.7972" lon="0.12938">
        <ele>3004</ele>
        <time>2023-06-08T06:07:32Z</time>
      </trkpt>
      <trkpt lat="42.79718" lon="0.12938">
        <ele>3002</ele>
        <time>2023-06-08T06:07:48Z</time>
      </trkpt>
      <trkpt lat="42.79718" lon="0.12937">
        <ele>3002</ele>
        <time>2023-06-08T06:08:17Z</time>
      </trkpt>
      <trkpt lat="42.79719" lon="0.12939">
        <ele>3002</ele>
        <time>2023-06-08T06:09:04Z</time>
      </trkpt>
      <trkpt lat="42.79719" lon="0.12938">
        <ele>3002</ele>
        <time>2023-06-08T06:09:35Z</time>
      </trkpt>
      <trkpt lat="42.7972" lon="0.12939">
        <ele>3002</ele>
        <time>2023-06-08T06:10:10Z</time>
      </trkpt>
      <trkpt lat="42.79719" lon="0.12938">
        <ele>3002</ele>
        <time>2023-06-08T06:10:33Z</time>
      </trkpt>
      <trkpt lat="42.79719" lon="0.1294">
        <ele>3002</ele>
        <time>2023-06-08T06:10:55Z</time>
      </trkpt>
      <trkpt lat="42.79719" lon="0.12939">
        <ele>3002</ele>
        <time>2023-06-08T06:11:18Z</time>
      </trkpt>
      <trkpt lat="42.7972" lon="0.1294">
        <ele>3003</ele>
        <time>2023-06-08T06:11:31Z</time>
      </trkpt>
      <trkpt lat="42.7972" lon="0.1294">
        <ele>3002</ele>
        <time>2023-06-08T06:11:50Z</time>
      </trkpt>
      <trkpt lat="42.7972" lon="0.1294">
        <ele>3002</ele>
        <time>2023-06-08T06:12:10Z</time>
      </trkpt>
      <trkpt lat="42.7972" lon="0.1294">
        <ele>3001</ele>
        <time>2023-06-08T06:12:46Z</time>
      </trkpt>
      <trkpt lat="42.79719" lon="0.1294">
        <ele>3002</ele>
        <time>2023-06-08T06:13:17Z</time>
      </trkpt>
      <trkpt lat="42.7972" lon="0.12941">
        <ele>3001</ele>
        <time>2023-06-08T06:13:55Z</time>
      </trkpt>
      <trkpt lat="42.79721" lon="0.12943">
        <ele>3001</ele>
        <time>2023-06-08T06:14:36Z</time>
      </trkpt>
      <trkpt lat="42.79721" lon="0.12942">
        <ele>3002</ele>
        <time>2023-06-08T06:14:43Z</time>
      </trkpt>
      <trkpt lat="42.79721" lon="0.12941">
        <ele>3002</ele>
        <time>2023-06-08T06:15:00Z</time>
      </trkpt>
      <trkpt lat="42.79722" lon="0.12942">
        <ele>3003</ele>
        <time>2023-06-08T06:15:21Z</time>
      </trkpt>
      <trkpt lat="42.79721" lon="0.1294">
        <ele>3003</ele>
        <time>2023-06-08T06:15:41Z</time>
      </trkpt>
      <trkpt lat="42.79718" lon="0.12939">
        <ele>3004</ele>
        <time>2023-06-08T06:16:05Z</time>
      </trkpt>
      <trkpt lat="42.79718" lon="0.12937">
        <ele>3004</ele>
        <time>2023-06-08T06:16:23Z</time>
      </trkpt>
      <trkpt lat="42.7972" lon="0.12934">
        <ele>3002</ele>
        <time>2023-06-08T06:16:45Z</time>
      </trkpt>
      <trkpt lat="42.79719" lon="0.1293">
        <ele>3001</ele>
        <time>2023-06-08T06:17:01Z</time>
      </trkpt>
      <trkpt lat="42.79719" lon="0.12928">
        <ele>3000</ele>
        <time>2023-06-08T06:17:19Z</time>
      </trkpt>
      <trkpt lat="42.79718" lon="0.12925">
        <ele>2999</ele>
        <time>2023-06-08T06:17:38Z</time>
      </trkpt>
      <trkpt lat="42.79717" lon="0.12922">
        <ele>2999</ele>
        <time>2023-06-08T06:18:02Z</time>
      </trkpt>
      <trkpt lat="42.79715" lon="0.1292">
        <ele>2996</ele>
        <time>2023-06-08T06:18:15Z</time>
      </trkpt>
      <trkpt lat="42.79708" lon="0.12912">
        <ele>2994</ele>
        <time>2023-06-08T06:18:33Z</time>
      </trkpt>
      <trkpt lat="42.79703" lon="0.12907">
        <ele>2993</ele>
        <time>2023-06-08T06:18:49Z</time>
      </trkpt>
      <trkpt lat="42.79701" lon="0.12902">
        <ele>2990</ele>
        <time>2023-06-08T06:19:06Z</time>
      </trkpt>
      <trkpt lat="42.79702" lon="0.12897">
        <ele>2988</ele>
        <time>2023-06-08T06:19:24Z</time>
      </trkpt>
      <trkpt lat="42.797" lon="0.12892">
        <ele>2986</ele>
        <time>2023-06-08T06:19:42Z</time>
      </trkpt>
      <trkpt lat="42.79703" lon="0.12888">
        <ele>2983</ele>
        <time>2023-06-08T06:19:57Z</time>
      </trkpt>
      <trkpt lat="42.79707" lon="0.12888">
        <ele>2981</ele>
        <time>2023-06-08T06:20:15Z</time>
      </trkpt>
      <trkpt lat="42.79706" lon="0.12883">
        <ele>2979</ele>
        <time>2023-06-08T06:20:30Z</time>
      </trkpt>
      <trkpt lat="42.79705" lon="0.12878">
        <ele>2976</ele>
        <time>2023-06-08T06:20:44Z</time>
      </trkpt>
      <trkpt lat="42.797" lon="0.12872">
        <ele>2974</ele>
        <time>2023-06-08T06:21:01Z</time>
      </trkpt>
      <trkpt lat="42.79695" lon="0.12868">
        <ele>2972</ele>
        <time>2023-06-08T06:21:17Z</time>
      </trkpt>
      <trkpt lat="42.79694" lon="0.12863">
        <ele>2969</ele>
        <time>2023-06-08T06:21:33Z</time>
      </trkpt>
      <trkpt lat="42.79693" lon="0.12856">
        <ele>2967</ele>
        <time>2023-06-08T06:21:49Z</time>
      </trkpt>
      <trkpt lat="42.79692" lon="0.12853">
        <ele>2964</ele>
        <time>2023-06-08T06:22:06Z</time>
      </trkpt>
      <trkpt lat="42.79689" lon="0.1285">
        <ele>2963</ele>
        <time>2023-06-08T06:22:22Z</time>
      </trkpt>
      <trkpt lat="42.79689" lon="0.12847">
        <ele>2964</ele>
        <time>2023-06-08T06:22:45Z</time>
      </trkpt>
      <trkpt lat="42.79691" lon="0.12847">
        <ele>2961</ele>
        <time>2023-06-08T06:23:03Z</time>
      </trkpt>
      <trkpt lat="42.79692" lon="0.1284">
        <ele>2958</ele>
        <time>2023-06-08T06:23:15Z</time>
      </trkpt>
      <trkpt lat="42.79691" lon="0.12832">
        <ele>2955</ele>
        <time>2023-06-08T06:23:31Z</time>
      </trkpt>
      <trkpt lat="42.7969" lon="0.12826">
        <ele>2951</ele>
        <time>2023-06-08T06:23:44Z</time>
      </trkpt>
      <trkpt lat="42.7969" lon="0.12819">
        <ele>2948</ele>
        <time>2023-06-08T06:23:56Z</time>
      </trkpt>
      <trkpt lat="42.7969" lon="0.1281">
        <ele>2947</ele>
        <time>2023-06-08T06:24:13Z</time>
      </trkpt>
      <trkpt lat="42.79692" lon="0.12808">
        <ele>2944</ele>
        <time>2023-06-08T06:24:30Z</time>
      </trkpt>
      <trkpt lat="42.79695" lon="0.12804">
        <ele>2942</ele>
        <time>2023-06-08T06:24:44Z</time>
      </trkpt>
      <trkpt lat="42.797" lon="0.12802">
        <ele>2940</ele>
        <time>2023-06-08T06:25:00Z</time>
      </trkpt>
      <trkpt lat="42.79704" lon="0.12798">
        <ele>2937</ele>
        <time>2023-06-08T06:25:14Z</time>
      </trkpt>
      <trkpt lat="42.79707" lon="0.12791">
        <ele>2934</ele>
        <time>2023-06-08T06:25:30Z</time>
      </trkpt>
      <trkpt lat="42.79711" lon="0.12785">
        <ele>2930</ele>
        <time>2023-06-08T06:25:46Z</time>
      </trkpt>
      <trkpt lat="42.79711" lon="0.12777">
        <ele>2928</ele>
        <time>2023-06-08T06:26:00Z</time>
      </trkpt>
      <trkpt lat="42.79709" lon="0.12771">
        <ele>2924</ele>
        <time>2023-06-08T06:26:15Z</time>
      </trkpt>
      <trkpt lat="42.79709" lon="0.12771">
        <ele>2924</ele>
        <time>2023-06-08T06:26:16Z</time>
      </trkpt>
      <trkpt lat="42.79706" lon="0.12761">
        <ele>2922</ele>
        <time>2023-06-08T06:26:31Z</time>
      </trkpt>
      <trkpt lat="42.79703" lon="0.12752">
        <ele>2919</ele>
        <time>2023-06-08T06:26:47Z</time>
      </trkpt>
      <trkpt lat="42.79701" lon="0.12743">
        <ele>2914</ele>
        <time>2023-06-08T06:27:04Z</time>
      </trkpt>
      <trkpt lat="42.79703" lon="0.12732">
        <ele>2914</ele>
        <time>2023-06-08T06:27:20Z</time>
      </trkpt>
      <trkpt lat="42.79707" lon="0.12726">
        <ele>2913</ele>
        <time>2023-06-08T06:27:36Z</time>
      </trkpt>
      <trkpt lat="42.79706" lon="0.12725">
        <ele>2914</ele>
        <time>2023-06-08T06:27:49Z</time>
      </trkpt>
      <trkpt lat="42.79705" lon="0.12725">
        <ele>2912</ele>
        <time>2023-06-08T06:28:14Z</time>
      </trkpt>
      <trkpt lat="42.79705" lon="0.12722">
        <ele>2911</ele>
        <time>2023-06-08T06:28:34Z</time>
      </trkpt>
      <trkpt lat="42.79705" lon="0.12724">
        <ele>2912</ele>
        <time>2023-06-08T06:28:57Z</time>
      </trkpt>
      <trkpt lat="42.79704" lon="0.12724">
        <ele>2911</ele>
        <time>2023-06-08T06:29:29Z</time>
      </trkpt>
      <trkpt lat="42.79705" lon="0.12724">
        <ele>2912</ele>
        <time>2023-06-08T06:30:02Z</time>
      </trkpt>
      <trkpt lat="42.79706" lon="0.12725">
        <ele>2912</ele>
        <time>2023-06-08T06:30:26Z</time>
      </trkpt>
      <trkpt lat="42.79707" lon="0.12727">
        <ele>2912</ele>
        <time>2023-06-08T06:30:51Z</time>
      </trkpt>
      <trkpt lat="42.79703" lon="0.12726">
        <ele>2911</ele>
        <time>2023-06-08T06:31:30Z</time>
      </trkpt>
      <trkpt lat="42.79704" lon="0.12728">
        <ele>2912</ele>
        <time>2023-06-08T06:32:01Z</time>
      </trkpt>
      <trkpt lat="42.79705" lon="0.12726">
        <ele>2912</ele>
        <time>2023-06-08T06:32:36Z</time>
      </trkpt>
      <trkpt lat="42.79704" lon="0.12726">
        <ele>2912</ele>
        <time>2023-06-08T06:32:57Z</time>
      </trkpt>
      <trkpt lat="42.79706" lon="0.12723">
        <ele>2912</ele>
        <time>2023-06-08T06:33:15Z</time>
      </trkpt>
      <trkpt lat="42.79705" lon="0.12724">
        <ele>2913</ele>
        <time>2023-06-08T06:33:31Z</time>
      </trkpt>
      <trkpt lat="42.79704" lon="0.12724">
        <ele>2912</ele>
        <time>2023-06-08T06:33:51Z</time>
      </trkpt>
      <trkpt lat="42.79706" lon="0.12727">
        <ele>2912</ele>
        <time>2023-06-08T06:34:08Z</time>
      </trkpt>
      <trkpt lat="42.79704" lon="0.12724">
        <ele>2913</ele>
        <time>2023-06-08T06:34:27Z</time>
      </trkpt>
      <trkpt lat="42.79705" lon="0.12724">
        <ele>2913</ele>
        <time>2023-06-08T06:34:48Z</time>
      </trkpt>
      <trkpt lat="42.79706" lon="0.12725">
        <ele>2914</ele>
        <time>2023-06-08T06:35:08Z</time>
      </trkpt>
      <trkpt lat="42.79709" lon="0.12722">
        <ele>2914</ele>
        <time>2023-06-08T06:35:21Z</time>
      </trkpt>
      <trkpt lat="42.79717" lon="0.12701">
        <ele>2912</ele>
        <time>2023-06-08T06:35:37Z</time>
      </trkpt>
      <trkpt lat="42.79719" lon="0.12683">
        <ele>2911</ele>
        <time>2023-06-08T06:35:49Z</time>
      </trkpt>
      <trkpt lat="42.79717" lon="0.12675">
        <ele>2909</ele>
        <time>2023-06-08T06:35:55Z</time>
      </trkpt>
      <trkpt lat="42.79715" lon="0.12669">
        <ele>2910</ele>
        <time>2023-06-08T06:36:01Z</time>
      </trkpt>
      <trkpt lat="42.7971" lon="0.12661">
        <ele>2908</ele>
        <time>2023-06-08T06:36:06Z</time>
      </trkpt>
      <trkpt lat="42.79702" lon="0.12646">
        <ele>2905</ele>
        <time>2023-06-08T06:36:14Z</time>
      </trkpt>
      <trkpt lat="42.79695" lon="0.12639">
        <ele>2906</ele>
        <time>2023-06-08T06:36:27Z</time>
      </trkpt>
      <trkpt lat="42.7969" lon="0.12633">
        <ele>2906</ele>
        <time>2023-06-08T06:36:50Z</time>
      </trkpt>
      <trkpt lat="42.79688" lon="0.12628">
        <ele>2904</ele>
        <time>2023-06-08T06:37:04Z</time>
      </trkpt>
      <trkpt lat="42.79684" lon="0.12626">
        <ele>2905</ele>
        <time>2023-06-08T06:37:17Z</time>
      </trkpt>
      <trkpt lat="42.79681" lon="0.12627">
        <ele>2906</ele>
        <time>2023-06-08T06:37:33Z</time>
      </trkpt>
      <trkpt lat="42.79678" lon="0.12628">
        <ele>2904</ele>
        <time>2023-06-08T06:37:46Z</time>
      </trkpt>
      <trkpt lat="42.79675" lon="0.12627">
        <ele>2904</ele>
        <time>2023-06-08T06:38:01Z</time>
      </trkpt>
      <trkpt lat="42.79672" lon="0.12627">
        <ele>2903</ele>
        <time>2023-06-08T06:38:18Z</time>
      </trkpt>
      <trkpt lat="42.79664" lon="0.12624">
        <ele>2903</ele>
        <time>2023-06-08T06:38:32Z</time>
      </trkpt>
      <trkpt lat="42.79652" lon="0.12616">
        <ele>2904</ele>
        <time>2023-06-08T06:38:49Z</time>
      </trkpt>
      <trkpt lat="42.79642" lon="0.12604">
        <ele>2905</ele>
        <time>2023-06-08T06:39:05Z</time>
      </trkpt>
      <trkpt lat="42.7963" lon="0.12593">
        <ele>2906</ele>
        <time>2023-06-08T06:39:23Z</time>
      </trkpt>
      <trkpt lat="42.7962" lon="0.12584">
        <ele>2907</ele>
        <time>2023-06-08T06:39:40Z</time>
      </trkpt>
      <trkpt lat="42.79612" lon="0.12572">
        <ele>2908</ele>
        <time>2023-06-08T06:39:58Z</time>
      </trkpt>
      <trkpt lat="42.79604" lon="0.1256">
        <ele>2910</ele>
        <time>2023-06-08T06:40:16Z</time>
      </trkpt>
      <trkpt lat="42.79597" lon="0.12545">
        <ele>2912</ele>
        <time>2023-06-08T06:40:37Z</time>
      </trkpt>
      <trkpt lat="42.79593" lon="0.12532">
        <ele>2914</ele>
        <time>2023-06-08T06:40:55Z</time>
      </trkpt>
      <trkpt lat="42.79586" lon="0.12514">
        <ele>2916</ele>
        <time>2023-06-08T06:41:15Z</time>
      </trkpt>
      <trkpt lat="42.79582" lon="0.12503">
        <ele>2918</ele>
        <time>2023-06-08T06:41:33Z</time>
      </trkpt>
      <trkpt lat="42.79579" lon="0.12491">
        <ele>2920</ele>
        <time>2023-06-08T06:41:49Z</time>
      </trkpt>
      <trkpt lat="42.79576" lon="0.12487">
        <ele>2920</ele>
        <time>2023-06-08T06:42:14Z</time>
      </trkpt>
      <trkpt lat="42.79569" lon="0.12473">
        <ele>2923</ele>
        <time>2023-06-08T06:42:37Z</time>
      </trkpt>
      <trkpt lat="42.79563" lon="0.12461">
        <ele>2926</ele>
        <time>2023-06-08T06:42:56Z</time>
      </trkpt>
      <trkpt lat="42.79557" lon="0.12447">
        <ele>2929</ele>
        <time>2023-06-08T06:43:16Z</time>
      </trkpt>
      <trkpt lat="42.79552" lon="0.12436">
        <ele>2932</ele>
        <time>2023-06-08T06:43:35Z</time>
      </trkpt>
      <trkpt lat="42.79551" lon="0.1243">
        <ele>2933</ele>
        <time>2023-06-08T06:43:55Z</time>
      </trkpt>
      <trkpt lat="42.79546" lon="0.1242">
        <ele>2935</ele>
        <time>2023-06-08T06:44:14Z</time>
      </trkpt>
      <trkpt lat="42.79543" lon="0.12407">
        <ele>2936</ele>
        <time>2023-06-08T06:44:32Z</time>
      </trkpt>
      <trkpt lat="42.79539" lon="0.12391">
        <ele>2939</ele>
        <time>2023-06-08T06:44:51Z</time>
      </trkpt>
      <trkpt lat="42.7954" lon="0.12392">
        <ele>2939</ele>
        <time>2023-06-08T06:45:14Z</time>
      </trkpt>
      <trkpt lat="42.79538" lon="0.12385">
        <ele>2940</ele>
        <time>2023-06-08T06:45:32Z</time>
      </trkpt>
      <trkpt lat="42.79535" lon="0.12371">
        <ele>2943</ele>
        <time>2023-06-08T06:45:50Z</time>
      </trkpt>
      <trkpt lat="42.7953" lon="0.12359">
        <ele>2946</ele>
        <time>2023-06-08T06:46:09Z</time>
      </trkpt>
      <trkpt lat="42.79524" lon="0.12346">
        <ele>2948</ele>
        <time>2023-06-08T06:46:28Z</time>
      </trkpt>
      <trkpt lat="42.79518" lon="0.12333">
        <ele>2950</ele>
        <time>2023-06-08T06:46:47Z</time>
      </trkpt>
      <trkpt lat="42.79518" lon="0.1233">
        <ele>2951</ele>
        <time>2023-06-08T06:47:04Z</time>
      </trkpt>
      <trkpt lat="42.79517" lon="0.12329">
        <ele>2951</ele>
        <time>2023-06-08T06:47:25Z</time>
      </trkpt>
      <trkpt lat="42.79516" lon="0.12326">
        <ele>2951</ele>
        <time>2023-06-08T06:47:34Z</time>
      </trkpt>
      <trkpt lat="42.79512" lon="0.12318">
        <ele>2953</ele>
        <time>2023-06-08T06:47:49Z</time>
      </trkpt>
      <trkpt lat="42.79507" lon="0.12306">
        <ele>2956</ele>
        <time>2023-06-08T06:48:08Z</time>
      </trkpt>
      <trkpt lat="42.79502" lon="0.12296">
        <ele>2958</ele>
        <time>2023-06-08T06:48:26Z</time>
      </trkpt>
      <trkpt lat="42.79497" lon="0.12289">
        <ele>2961</ele>
        <time>2023-06-08T06:48:44Z</time>
      </trkpt>
      <trkpt lat="42.79493" lon="0.12282">
        <ele>2962</ele>
        <time>2023-06-08T06:49:00Z</time>
      </trkpt>
      <trkpt lat="42.79489" lon="0.12273">
        <ele>2963</ele>
        <time>2023-06-08T06:49:19Z</time>
      </trkpt>
      <trkpt lat="42.79484" lon="0.12264">
        <ele>2966</ele>
        <time>2023-06-08T06:49:37Z</time>
      </trkpt>
      <trkpt lat="42.79481" lon="0.12258">
        <ele>2967</ele>
        <time>2023-06-08T06:49:51Z</time>
      </trkpt>
      <trkpt lat="42.79475" lon="0.12247">
        <ele>2971</ele>
        <time>2023-06-08T06:50:12Z</time>
      </trkpt>
      <trkpt lat="42.79472" lon="0.12239">
        <ele>2972</ele>
        <time>2023-06-08T06:50:28Z</time>
      </trkpt>
      <trkpt lat="42.79468" lon="0.12229">
        <ele>2974</ele>
        <time>2023-06-08T06:50:45Z</time>
      </trkpt>
      <trkpt lat="42.79466" lon="0.12222">
        <ele>2975</ele>
        <time>2023-06-08T06:50:59Z</time>
      </trkpt>
      <trkpt lat="42.79463" lon="0.12216">
        <ele>2976</ele>
        <time>2023-06-08T06:51:17Z</time>
      </trkpt>
      <trkpt lat="42.79462" lon="0.12207">
        <ele>2978</ele>
        <time>2023-06-08T06:51:34Z</time>
      </trkpt>
      <trkpt lat="42.79459" lon="0.12197">
        <ele>2980</ele>
        <time>2023-06-08T06:51:48Z</time>
      </trkpt>
      <trkpt lat="42.79456" lon="0.12186">
        <ele>2982</ele>
        <time>2023-06-08T06:52:05Z</time>
      </trkpt>
      <trkpt lat="42.79451" lon="0.12178">
        <ele>2984</ele>
        <time>2023-06-08T06:52:19Z</time>
      </trkpt>
      <trkpt lat="42.79448" lon="0.1217">
        <ele>2986</ele>
        <time>2023-06-08T06:52:37Z</time>
      </trkpt>
      <trkpt lat="42.79446" lon="0.12166">
        <ele>2987</ele>
        <time>2023-06-08T06:52:53Z</time>
      </trkpt>
      <trkpt lat="42.79446" lon="0.12163">
        <ele>2987</ele>
        <time>2023-06-08T06:53:05Z</time>
      </trkpt>
      <trkpt lat="42.79441" lon="0.12163">
        <ele>2987</ele>
        <time>2023-06-08T06:53:24Z</time>
      </trkpt>
      <trkpt lat="42.7944" lon="0.12167">
        <ele>2988</ele>
        <time>2023-06-08T06:53:43Z</time>
      </trkpt>
      <trkpt lat="42.79437" lon="0.12175">
        <ele>2990</ele>
        <time>2023-06-08T06:53:53Z</time>
      </trkpt>
      <trkpt lat="42.79431" lon="0.12198">
        <ele>2994</ele>
        <time>2023-06-08T06:54:21Z</time>
      </trkpt>
      <trkpt lat="42.79431" lon="0.12187">
        <ele>2996</ele>
        <time>2023-06-08T06:55:03Z</time>
      </trkpt>
      <trkpt lat="42.79428" lon="0.12177">
        <ele>2998</ele>
        <time>2023-06-08T06:55:20Z</time>
      </trkpt>
      <trkpt lat="42.79424" lon="0.12169">
        <ele>2999</ele>
        <time>2023-06-08T06:55:36Z</time>
      </trkpt>
      <trkpt lat="42.79421" lon="0.12162">
        <ele>3002</ele>
        <time>2023-06-08T06:55:51Z</time>
      </trkpt>
      <trkpt lat="42.79416" lon="0.12154">
        <ele>3004</ele>
        <time>2023-06-08T06:56:07Z</time>
      </trkpt>
      <trkpt lat="42.79415" lon="0.12156">
        <ele>3004</ele>
        <time>2023-06-08T06:56:28Z</time>
      </trkpt>
      <trkpt lat="42.79411" lon="0.12169">
        <ele>3006</ele>
        <time>2023-06-08T06:56:43Z</time>
      </trkpt>
      <trkpt lat="42.7941" lon="0.12182">
        <ele>3008</ele>
        <time>2023-06-08T06:56:59Z</time>
      </trkpt>
      <trkpt lat="42.79411" lon="0.12188">
        <ele>3010</ele>
        <time>2023-06-08T06:57:19Z</time>
      </trkpt>
      <trkpt lat="42.79408" lon="0.12183">
        <ele>3010</ele>
        <time>2023-06-08T06:57:41Z</time>
      </trkpt>
      <trkpt lat="42.79403" lon="0.12174">
        <ele>3012</ele>
        <time>2023-06-08T06:57:55Z</time>
      </trkpt>
      <trkpt lat="42.79399" lon="0.12165">
        <ele>3014</ele>
        <time>2023-06-08T06:58:13Z</time>
      </trkpt>
      <trkpt lat="42.79394" lon="0.12157">
        <ele>3016</ele>
        <time>2023-06-08T06:58:29Z</time>
      </trkpt>
      <trkpt lat="42.7939" lon="0.12148">
        <ele>3019</ele>
        <time>2023-06-08T06:58:44Z</time>
      </trkpt>
      <trkpt lat="42.79389" lon="0.12148">
        <ele>3019</ele>
        <time>2023-06-08T06:58:56Z</time>
      </trkpt>
      <trkpt lat="42.79387" lon="0.12156">
        <ele>3021</ele>
        <time>2023-06-08T06:59:14Z</time>
      </trkpt>
      <trkpt lat="42.79385" lon="0.12168">
        <ele>3022</ele>
        <time>2023-06-08T06:59:30Z</time>
      </trkpt>
      <trkpt lat="42.79384" lon="0.12181">
        <ele>3025</ele>
        <time>2023-06-08T06:59:47Z</time>
      </trkpt>
      <trkpt lat="42.79386" lon="0.1219">
        <ele>3026</ele>
        <time>2023-06-08T07:00:05Z</time>
      </trkpt>
      <trkpt lat="42.79385" lon="0.1219">
        <ele>3027</ele>
        <time>2023-06-08T07:00:12Z</time>
      </trkpt>
      <trkpt lat="42.79385" lon="0.12189">
        <ele>3026</ele>
        <time>2023-06-08T07:00:27Z</time>
      </trkpt>
      <trkpt lat="42.79381" lon="0.12182">
        <ele>3028</ele>
        <time>2023-06-08T07:00:43Z</time>
      </trkpt>
      <trkpt lat="42.79375" lon="0.12175">
        <ele>3031</ele>
        <time>2023-06-08T07:00:59Z</time>
      </trkpt>
      <trkpt lat="42.79369" lon="0.12165">
        <ele>3033</ele>
        <time>2023-06-08T07:01:18Z</time>
      </trkpt>
      <trkpt lat="42.79364" lon="0.12156">
        <ele>3035</ele>
        <time>2023-06-08T07:01:35Z</time>
      </trkpt>
      <trkpt lat="42.79362" lon="0.12153">
        <ele>3035</ele>
        <time>2023-06-08T07:01:50Z</time>
      </trkpt>
      <trkpt lat="42.79361" lon="0.12154">
        <ele>3036</ele>
        <time>2023-06-08T07:02:09Z</time>
      </trkpt>
      <trkpt lat="42.79359" lon="0.12168">
        <ele>3038</ele>
        <time>2023-06-08T07:02:26Z</time>
      </trkpt>
      <trkpt lat="42.79358" lon="0.1218">
        <ele>3041</ele>
        <time>2023-06-08T07:02:44Z</time>
      </trkpt>
      <trkpt lat="42.79357" lon="0.12183">
        <ele>3041</ele>
        <time>2023-06-08T07:02:48Z</time>
      </trkpt>
      <trkpt lat="42.79357" lon="0.12198">
        <ele>3043</ele>
        <time>2023-06-08T07:03:05Z</time>
      </trkpt>
      <trkpt lat="42.79358" lon="0.12211">
        <ele>3046</ele>
        <time>2023-06-08T07:03:24Z</time>
      </trkpt>
      <trkpt lat="42.7936" lon="0.1221">
        <ele>3046</ele>
        <time>2023-06-08T07:03:47Z</time>
      </trkpt>
      <trkpt lat="42.7936" lon="0.12217">
        <ele>3047</ele>
        <time>2023-06-08T07:04:05Z</time>
      </trkpt>
      <trkpt lat="42.79359" lon="0.12217">
        <ele>3047</ele>
        <time>2023-06-08T07:04:16Z</time>
      </trkpt>
      <trkpt lat="42.79353" lon="0.1221">
        <ele>3050</ele>
        <time>2023-06-08T07:04:33Z</time>
      </trkpt>
      <trkpt lat="42.79345" lon="0.12203">
        <ele>3053</ele>
        <time>2023-06-08T07:04:51Z</time>
      </trkpt>
      <trkpt lat="42.79335" lon="0.12192">
        <ele>3056</ele>
        <time>2023-06-08T07:05:12Z</time>
      </trkpt>
      <trkpt lat="42.79329" lon="0.12184">
        <ele>3059</ele>
        <time>2023-06-08T07:05:30Z</time>
      </trkpt>
      <trkpt lat="42.79325" lon="0.12173">
        <ele>3061</ele>
        <time>2023-06-08T07:05:48Z</time>
      </trkpt>
      <trkpt lat="42.79322" lon="0.12162">
        <ele>3063</ele>
        <time>2023-06-08T07:06:04Z</time>
      </trkpt>
      <trkpt lat="42.79317" lon="0.12151">
        <ele>3065</ele>
        <time>2023-06-08T07:06:22Z</time>
      </trkpt>
      <trkpt lat="42.79314" lon="0.12141">
        <ele>3068</ele>
        <time>2023-06-08T07:06:41Z</time>
      </trkpt>
      <trkpt lat="42.79312" lon="0.12139">
        <ele>3068</ele>
        <time>2023-06-08T07:07:01Z</time>
      </trkpt>
      <trkpt lat="42.79309" lon="0.12149">
        <ele>3069</ele>
        <time>2023-06-08T07:07:20Z</time>
      </trkpt>
      <trkpt lat="42.79304" lon="0.12159">
        <ele>3071</ele>
        <time>2023-06-08T07:07:34Z</time>
      </trkpt>
      <trkpt lat="42.79299" lon="0.12169">
        <ele>3072</ele>
        <time>2023-06-08T07:07:51Z</time>
      </trkpt>
      <trkpt lat="42.79298" lon="0.12168">
        <ele>3073</ele>
        <time>2023-06-08T07:08:01Z</time>
      </trkpt>
      <trkpt lat="42.79299" lon="0.12168">
        <ele>3074</ele>
        <time>2023-06-08T07:08:17Z</time>
      </trkpt>
      <trkpt lat="42.79296" lon="0.12155">
        <ele>3077</ele>
        <time>2023-06-08T07:08:36Z</time>
      </trkpt>
      <trkpt lat="42.79294" lon="0.12141">
        <ele>3079</ele>
        <time>2023-06-08T07:08:55Z</time>
      </trkpt>
      <trkpt lat="42.79294" lon="0.1213">
        <ele>3082</ele>
        <time>2023-06-08T07:09:12Z</time>
      </trkpt>
      <trkpt lat="42.79295" lon="0.12114">
        <ele>3085</ele>
        <time>2023-06-08T07:09:31Z</time>
      </trkpt>
      <trkpt lat="42.79294" lon="0.12115">
        <ele>3085</ele>
        <time>2023-06-08T07:09:59Z</time>
      </trkpt>
      <trkpt lat="42.79294" lon="0.12111">
        <ele>3086</ele>
        <time>2023-06-08T07:10:16Z</time>
      </trkpt>
      <trkpt lat="42.79294" lon="0.12109">
        <ele>3087</ele>
        <time>2023-06-08T07:10:31Z</time>
      </trkpt>
      <trkpt lat="42.7929" lon="0.12115">
        <ele>3088</ele>
        <time>2023-06-08T07:10:43Z</time>
      </trkpt>
      <trkpt lat="42.79285" lon="0.12123">
        <ele>3090</ele>
        <time>2023-06-08T07:10:59Z</time>
      </trkpt>
      <trkpt lat="42.79284" lon="0.12121">
        <ele>3090</ele>
        <time>2023-06-08T07:11:16Z</time>
      </trkpt>
      <trkpt lat="42.79285" lon="0.1212">
        <ele>3091</ele>
        <time>2023-06-08T07:11:34Z</time>
      </trkpt>
      <trkpt lat="42.79286" lon="0.12112">
        <ele>3094</ele>
        <time>2023-06-08T07:11:48Z</time>
      </trkpt>
      <trkpt lat="42.79285" lon="0.12108">
        <ele>3094</ele>
        <time>2023-06-08T07:12:04Z</time>
      </trkpt>
      <trkpt lat="42.79282" lon="0.12112">
        <ele>3095</ele>
        <time>2023-06-08T07:12:17Z</time>
      </trkpt>
      <trkpt lat="42.79279" lon="0.12117">
        <ele>3096</ele>
        <time>2023-06-08T07:12:31Z</time>
      </trkpt>
      <trkpt lat="42.79279" lon="0.12114">
        <ele>3096</ele>
        <time>2023-06-08T07:12:46Z</time>
      </trkpt>
      <trkpt lat="42.79279" lon="0.1211">
        <ele>3097</ele>
        <time>2023-06-08T07:13:03Z</time>
      </trkpt>
      <trkpt lat="42.7928" lon="0.12106">
        <ele>3099</ele>
        <time>2023-06-08T07:13:17Z</time>
      </trkpt>
      <trkpt lat="42.79277" lon="0.12107">
        <ele>3100</ele>
        <time>2023-06-08T07:13:31Z</time>
      </trkpt>
      <trkpt lat="42.79273" lon="0.12111">
        <ele>3102</ele>
        <time>2023-06-08T07:13:44Z</time>
      </trkpt>
      <trkpt lat="42.79271" lon="0.12113">
        <ele>3103</ele>
        <time>2023-06-08T07:14:00Z</time>
      </trkpt>
      <trkpt lat="42.7927" lon="0.12113">
        <ele>3104</ele>
        <time>2023-06-08T07:14:18Z</time>
      </trkpt>
      <trkpt lat="42.7927" lon="0.12114">
        <ele>3104</ele>
        <time>2023-06-08T07:14:40Z</time>
      </trkpt>
      <trkpt lat="42.7927" lon="0.12111">
        <ele>3104</ele>
        <time>2023-06-08T07:15:07Z</time>
      </trkpt>
      <trkpt lat="42.7927" lon="0.12108">
        <ele>3104</ele>
        <time>2023-06-08T07:15:21Z</time>
      </trkpt>
      <trkpt lat="42.79272" lon="0.12102">
        <ele>3106</ele>
        <time>2023-06-08T07:15:37Z</time>
      </trkpt>
      <trkpt lat="42.79269" lon="0.12103">
        <ele>3107</ele>
        <time>2023-06-08T07:15:50Z</time>
      </trkpt>
      <trkpt lat="42.79267" lon="0.12104">
        <ele>3108</ele>
        <time>2023-06-08T07:16:00Z</time>
      </trkpt>
      <trkpt lat="42.79267" lon="0.12103">
        <ele>3108</ele>
        <time>2023-06-08T07:16:16Z</time>
      </trkpt>
      <trkpt lat="42.7927" lon="0.12098">
        <ele>3110</ele>
        <time>2023-06-08T07:16:29Z</time>
      </trkpt>
      <trkpt lat="42.79274" lon="0.12086">
        <ele>3112</ele>
        <time>2023-06-08T07:16:47Z</time>
      </trkpt>
      <trkpt lat="42.79275" lon="0.12076">
        <ele>3116</ele>
        <time>2023-06-08T07:17:03Z</time>
      </trkpt>
      <trkpt lat="42.79277" lon="0.12073">
        <ele>3115</ele>
        <time>2023-06-08T07:17:21Z</time>
      </trkpt>
      <trkpt lat="42.79274" lon="0.12074">
        <ele>3117</ele>
        <time>2023-06-08T07:17:31Z</time>
      </trkpt>
      <trkpt lat="42.79266" lon="0.1208">
        <ele>3119</ele>
        <time>2023-06-08T07:17:46Z</time>
      </trkpt>
      <trkpt lat="42.79262" lon="0.12082">
        <ele>3119</ele>
        <time>2023-06-08T07:18:02Z</time>
      </trkpt>
      <trkpt lat="42.79264" lon="0.12081">
        <ele>3120</ele>
        <time>2023-06-08T07:18:18Z</time>
      </trkpt>
      <trkpt lat="42.79266" lon="0.12074">
        <ele>3121</ele>
        <time>2023-06-08T07:18:33Z</time>
      </trkpt>
      <trkpt lat="42.79267" lon="0.12068">
        <ele>3123</ele>
        <time>2023-06-08T07:18:51Z</time>
      </trkpt>
      <trkpt lat="42.79268" lon="0.12063">
        <ele>3123</ele>
        <time>2023-06-08T07:19:16Z</time>
      </trkpt>
      <trkpt lat="42.79271" lon="0.12051">
        <ele>3126</ele>
        <time>2023-06-08T07:19:35Z</time>
      </trkpt>
      <trkpt lat="42.7927" lon="0.12051">
        <ele>3126</ele>
        <time>2023-06-08T07:19:49Z</time>
      </trkpt>
      <trkpt lat="42.79267" lon="0.12053">
        <ele>3126</ele>
        <time>2023-06-08T07:19:55Z</time>
      </trkpt>
      <trkpt lat="42.79259" lon="0.1206">
        <ele>3129</ele>
        <time>2023-06-08T07:20:12Z</time>
      </trkpt>
      <trkpt lat="42.79253" lon="0.12065">
        <ele>3130</ele>
        <time>2023-06-08T07:20:27Z</time>
      </trkpt>
      <trkpt lat="42.79254" lon="0.12066">
        <ele>3131</ele>
        <time>2023-06-08T07:20:44Z</time>
      </trkpt>
      <trkpt lat="42.79253" lon="0.12065">
        <ele>3131</ele>
        <time>2023-06-08T07:21:11Z</time>
      </trkpt>
      <trkpt lat="42.79254" lon="0.12065">
        <ele>3131</ele>
        <time>2023-06-08T07:21:39Z</time>
      </trkpt>
      <trkpt lat="42.79258" lon="0.12051">
        <ele>3134</ele>
        <time>2023-06-08T07:21:57Z</time>
      </trkpt>
      <trkpt lat="42.79262" lon="0.12038">
        <ele>3136</ele>
        <time>2023-06-08T07:22:14Z</time>
      </trkpt>
      <trkpt lat="42.79263" lon="0.12032">
        <ele>3137</ele>
        <time>2023-06-08T07:22:27Z</time>
      </trkpt>
      <trkpt lat="42.79266" lon="0.12026">
        <ele>3139</ele>
        <time>2023-06-08T07:22:42Z</time>
      </trkpt>
      <trkpt lat="42.79267" lon="0.12024">
        <ele>3140</ele>
        <time>2023-06-08T07:23:00Z</time>
      </trkpt>
      <trkpt lat="42.79266" lon="0.12019">
        <ele>3141</ele>
        <time>2023-06-08T07:23:17Z</time>
      </trkpt>
      <trkpt lat="42.79265" lon="0.12018">
        <ele>3142</ele>
        <time>2023-06-08T07:23:34Z</time>
      </trkpt>
      <trkpt lat="42.79259" lon="0.12022">
        <ele>3143</ele>
        <time>2023-06-08T07:23:46Z</time>
      </trkpt>
      <trkpt lat="42.79251" lon="0.12027">
        <ele>3146</ele>
        <time>2023-06-08T07:24:03Z</time>
      </trkpt>
      <trkpt lat="42.7924" lon="0.1203">
        <ele>3149</ele>
        <time>2023-06-08T07:24:25Z</time>
      </trkpt>
      <trkpt lat="42.79238" lon="0.12032">
        <ele>3150</ele>
        <time>2023-06-08T07:24:41Z</time>
      </trkpt>
      <trkpt lat="42.79237" lon="0.12031">
        <ele>3150</ele>
        <time>2023-06-08T07:24:57Z</time>
      </trkpt>
      <trkpt lat="42.79237" lon="0.12032">
        <ele>3150</ele>
        <time>2023-06-08T07:25:23Z</time>
      </trkpt>
      <trkpt lat="42.79237" lon="0.1203">
        <ele>3150</ele>
        <time>2023-06-08T07:25:35Z</time>
      </trkpt>
      <trkpt lat="42.79242" lon="0.12027">
        <ele>3150</ele>
        <time>2023-06-08T07:25:54Z</time>
      </trkpt>
      <trkpt lat="42.79245" lon="0.12023">
        <ele>3151</ele>
        <time>2023-06-08T07:26:10Z</time>
      </trkpt>
      <trkpt lat="42.79247" lon="0.12018">
        <ele>3152</ele>
        <time>2023-06-08T07:26:25Z</time>
      </trkpt>
      <trkpt lat="42.79248" lon="0.12017">
        <ele>3152</ele>
        <time>2023-06-08T07:26:46Z</time>
      </trkpt>
      <trkpt lat="42.79249" lon="0.12016">
        <ele>3152</ele>
        <time>2023-06-08T07:27:02Z</time>
      </trkpt>
      <trkpt lat="42.79251" lon="0.12013">
        <ele>3153</ele>
        <time>2023-06-08T07:27:18Z</time>
      </trkpt>
      <trkpt lat="42.79253" lon="0.12004">
        <ele>3156</ele>
        <time>2023-06-08T07:27:33Z</time>
      </trkpt>
      <trkpt lat="42.79253" lon="0.12003">
        <ele>3157</ele>
        <time>2023-06-08T07:27:48Z</time>
      </trkpt>
      <trkpt lat="42.79254" lon="0.12003">
        <ele>3157</ele>
        <time>2023-06-08T07:28:08Z</time>
      </trkpt>
      <trkpt lat="42.79254" lon="0.11998">
        <ele>3157</ele>
        <time>2023-06-08T07:28:23Z</time>
      </trkpt>
      <trkpt lat="42.79253" lon="0.11996">
        <ele>3159</ele>
        <time>2023-06-08T07:28:39Z</time>
      </trkpt>
      <trkpt lat="42.7925" lon="0.11999">
        <ele>3159</ele>
        <time>2023-06-08T07:28:51Z</time>
      </trkpt>
      <trkpt lat="42.79245" lon="0.12002">
        <ele>3161</ele>
        <time>2023-06-08T07:29:05Z</time>
      </trkpt>
      <trkpt lat="42.79244" lon="0.12002">
        <ele>3160</ele>
        <time>2023-06-08T07:29:24Z</time>
      </trkpt>
      <trkpt lat="42.79245" lon="0.12004">
        <ele>3161</ele>
        <time>2023-06-08T07:30:00Z</time>
      </trkpt>
      <trkpt lat="42.79241" lon="0.12006">
        <ele>3163</ele>
        <time>2023-06-08T07:30:17Z</time>
      </trkpt>
      <trkpt lat="42.79239" lon="0.12008">
        <ele>3163</ele>
        <time>2023-06-08T07:30:32Z</time>
      </trkpt>
      <trkpt lat="42.79239" lon="0.1201">
        <ele>3164</ele>
        <time>2023-06-08T07:30:47Z</time>
      </trkpt>
      <trkpt lat="42.7924" lon="0.12005">
        <ele>3164</ele>
        <time>2023-06-08T07:31:08Z</time>
      </trkpt>
      <trkpt lat="42.79242" lon="0.11998">
        <ele>3168</ele>
        <time>2023-06-08T07:31:23Z</time>
      </trkpt>
      <trkpt lat="42.79239" lon="0.11993">
        <ele>3166</ele>
        <time>2023-06-08T07:31:37Z</time>
      </trkpt>
      <trkpt lat="42.79233" lon="0.11988">
        <ele>3167</ele>
        <time>2023-06-08T07:31:54Z</time>
      </trkpt>
      <trkpt lat="42.79228" lon="0.11985">
        <ele>3168</ele>
        <time>2023-06-08T07:32:01Z</time>
      </trkpt>
      <trkpt lat="42.79218" lon="0.11983">
        <ele>3171</ele>
        <time>2023-06-08T07:32:18Z</time>
      </trkpt>
      <trkpt lat="42.7921" lon="0.1198">
        <ele>3174</ele>
        <time>2023-06-08T07:32:30Z</time>
      </trkpt>
      <trkpt lat="42.79208" lon="0.11981">
        <ele>3175</ele>
        <time>2023-06-08T07:32:48Z</time>
      </trkpt>
      <trkpt lat="42.79205" lon="0.11977">
        <ele>3176</ele>
        <time>2023-06-08T07:33:08Z</time>
      </trkpt>
      <trkpt lat="42.79203" lon="0.11976">
        <ele>3176</ele>
        <time>2023-06-08T07:33:19Z</time>
      </trkpt>
      <trkpt lat="42.79201" lon="0.11976">
        <ele>3176</ele>
        <time>2023-06-08T07:33:32Z</time>
      </trkpt>
      <trkpt lat="42.79202" lon="0.11979">
        <ele>3176</ele>
        <time>2023-06-08T07:34:02Z</time>
      </trkpt>
      <trkpt lat="42.79202" lon="0.11977">
        <ele>3176</ele>
        <time>2023-06-08T07:34:23Z</time>
      </trkpt>
      <trkpt lat="42.79202" lon="0.11975">
        <ele>3176</ele>
        <time>2023-06-08T07:34:39Z</time>
      </trkpt>
      <trkpt lat="42.79202" lon="0.1197">
        <ele>3176</ele>
        <time>2023-06-08T07:34:57Z</time>
      </trkpt>
      <trkpt lat="42.79201" lon="0.11971">
        <ele>3176</ele>
        <time>2023-06-08T07:35:15Z</time>
      </trkpt>
      <trkpt lat="42.79201" lon="0.11971">
        <ele>3176</ele>
        <time>2023-06-08T07:35:35Z</time>
      </trkpt>
      <trkpt lat="42.79201" lon="0.11969">
        <ele>3177</ele>
        <time>2023-06-08T07:35:58Z</time>
      </trkpt>
      <trkpt lat="42.792" lon="0.1197">
        <ele>3176</ele>
        <time>2023-06-08T07:36:17Z</time>
      </trkpt>
      <trkpt lat="42.792" lon="0.11973">
        <ele>3176</ele>
        <time>2023-06-08T07:36:44Z</time>
      </trkpt>
      <trkpt lat="42.79199" lon="0.11972">
        <ele>3176</ele>
        <time>2023-06-08T07:37:06Z</time>
      </trkpt>
      <trkpt lat="42.792" lon="0.11971">
        <ele>3176</ele>
        <time>2023-06-08T07:37:34Z</time>
      </trkpt>
      <trkpt lat="42.792" lon="0.1197">
        <ele>3176</ele>
        <time>2023-06-08T07:37:58Z</time>
      </trkpt>
      <trkpt lat="42.79201" lon="0.11972">
        <ele>3176</ele>
        <time>2023-06-08T07:38:12Z</time>
      </trkpt>
      <trkpt lat="42.79202" lon="0.11974">
        <ele>3174</ele>
        <time>2023-06-08T07:38:27Z</time>
      </trkpt>
      <trkpt lat="42.79203" lon="0.11975">
        <ele>3175</ele>
        <time>2023-06-08T07:38:58Z</time>
      </trkpt>
      <trkpt lat="42.79205" lon="0.11975">
        <ele>3175</ele>
        <time>2023-06-08T07:39:30Z</time>
      </trkpt>
      <trkpt lat="42.79205" lon="0.11975">
        <ele>3174</ele>
        <time>2023-06-08T07:40:09Z</time>
      </trkpt>
      <trkpt lat="42.79205" lon="0.11976">
        <ele>3175</ele>
        <time>2023-06-08T07:40:36Z</time>
      </trkpt>
      <trkpt lat="42.79204" lon="0.11976">
        <ele>3175</ele>
        <time>2023-06-08T07:41:06Z</time>
      </trkpt>
      <trkpt lat="42.79205" lon="0.11975">
        <ele>3175</ele>
        <time>2023-06-08T07:41:27Z</time>
      </trkpt>
      <trkpt lat="42.79207" lon="0.11976">
        <ele>3174</ele>
        <time>2023-06-08T07:41:52Z</time>
      </trkpt>
      <trkpt lat="42.79207" lon="0.11975">
        <ele>3175</ele>
        <time>2023-06-08T07:42:21Z</time>
      </trkpt>
      <trkpt lat="42.79206" lon="0.11975">
        <ele>3175</ele>
        <time>2023-06-08T07:42:52Z</time>
      </trkpt>
      <trkpt lat="42.79205" lon="0.11975">
        <ele>3175</ele>
        <time>2023-06-08T07:43:25Z</time>
      </trkpt>
      <trkpt lat="42.79205" lon="0.11974">
        <ele>3175</ele>
        <time>2023-06-08T07:43:49Z</time>
      </trkpt>
      <trkpt lat="42.79205" lon="0.11975">
        <ele>3175</ele>
        <time>2023-06-08T07:44:09Z</time>
      </trkpt>
      <trkpt lat="42.79205" lon="0.11974">
        <ele>3175</ele>
        <time>2023-06-08T07:44:32Z</time>
      </trkpt>
      <trkpt lat="42.79205" lon="0.11974">
        <ele>3175</ele>
        <time>2023-06-08T07:45:05Z</time>
      </trkpt>
      <trkpt lat="42.79205" lon="0.11973">
        <ele>3175</ele>
        <time>2023-06-08T07:45:41Z</time>
      </trkpt>
      <trkpt lat="42.79205" lon="0.11973">
        <ele>3175</ele>
        <time>2023-06-08T07:46:14Z</time>
      </trkpt>
      <trkpt lat="42.79205" lon="0.11973">
        <ele>3175</ele>
        <time>2023-06-08T07:46:44Z</time>
      </trkpt>
      <trkpt lat="42.79205" lon="0.11975">
        <ele>3174</ele>
        <time>2023-06-08T07:47:08Z</time>
      </trkpt>
      <trkpt lat="42.79205" lon="0.11975">
        <ele>3175</ele>
        <time>2023-06-08T07:47:44Z</time>
      </trkpt>
      <trkpt lat="42.79205" lon="0.11975">
        <ele>3174</ele>
        <time>2023-06-08T07:48:14Z</time>
      </trkpt>
      <trkpt lat="42.79205" lon="0.11975">
        <ele>3174</ele>
        <time>2023-06-08T07:48:59Z</time>
      </trkpt>
      <trkpt lat="42.79203" lon="0.11975">
        <ele>3175</ele>
        <time>2023-06-08T07:49:26Z</time>
      </trkpt>
      <trkpt lat="42.79201" lon="0.11975">
        <ele>3175</ele>
        <time>2023-06-08T07:49:44Z</time>
      </trkpt>
      <trkpt lat="42.79205" lon="0.11975">
        <ele>3174</ele>
        <time>2023-06-08T07:32:26Z</time>
      </trkpt>
      <trkpt lat="42.79243" lon="0.11977">
        <ele>3166</ele>
        <time>2023-06-08T07:56:08Z</time>
      </trkpt>
      <trkpt lat="42.79236" lon="0.11954">
        <ele>3158</ele>
        <time>2023-06-08T07:56:18Z</time>
      </trkpt>
      <trkpt lat="42.79254" lon="0.11945">
        <ele>3150</ele>
        <time>2023-06-08T07:56:27Z</time>
      </trkpt>
      <trkpt lat="42.79266" lon="0.11923">
        <ele>3144</ele>
        <time>2023-06-08T07:56:37Z</time>
      </trkpt>
      <trkpt lat="42.79271" lon="0.11842">
        <ele>3102</ele>
        <time>2023-06-08T07:57:05Z</time>
      </trkpt>
      <trkpt lat="42.79268" lon="0.11816">
        <ele>3085</ele>
        <time>2023-06-08T07:57:15Z</time>
      </trkpt>
      <trkpt lat="42.7928" lon="0.11766">
        <ele>3060</ele>
        <time>2023-06-08T07:57:31Z</time>
      </trkpt>
      <trkpt lat="42.79267" lon="0.11747">
        <ele>3053</ele>
        <time>2023-06-08T07:57:35Z</time>
      </trkpt>
      <trkpt lat="42.79277" lon="0.11722">
        <ele>3044</ele>
        <time>2023-06-08T07:57:41Z</time>
      </trkpt>
      <trkpt lat="42.79311" lon="0.11699">
        <ele>3019</ele>
        <time>2023-06-08T07:57:53Z</time>
      </trkpt>
      <trkpt lat="42.79326" lon="0.11648">
        <ele>2998</ele>
        <time>2023-06-08T08:00:52Z</time>
      </trkpt>
      <trkpt lat="42.79363" lon="0.11619">
        <ele>2985</ele>
        <time>2023-06-08T08:01:03Z</time>
      </trkpt>
      <trkpt lat="42.79406" lon="0.11624">
        <ele>2973</ele>
        <time>2023-06-08T08:01:13Z</time>
      </trkpt>
      <trkpt lat="42.79463" lon="0.11651">
        <ele>2951</ele>
        <time>2023-06-08T08:01:29Z</time>
      </trkpt>
      <trkpt lat="42.79488" lon="0.11653">
        <ele>2945</ele>
        <time>2023-06-08T08:01:35Z</time>
      </trkpt>
      <trkpt lat="42.79507" lon="0.11645">
        <ele>2937</ele>
        <time>2023-06-08T08:01:40Z</time>
      </trkpt>
      <trkpt lat="42.79528" lon="0.11652">
        <ele>2929</ele>
        <time>2023-06-08T08:01:44Z</time>
      </trkpt>
      <trkpt lat="42.79548" lon="0.1164">
        <ele>2921</ele>
        <time>2023-06-08T08:01:48Z</time>
      </trkpt>
      <trkpt lat="42.79567" lon="0.11651">
        <ele>2918</ele>
        <time>2023-06-08T08:01:52Z</time>
      </trkpt>
      <trkpt lat="42.79567" lon="0.11621">
        <ele>2913</ele>
        <time>2023-06-08T08:01:56Z</time>
      </trkpt>
      <trkpt lat="42.7959" lon="0.11621">
        <ele>2905</ele>
        <time>2023-06-08T08:01:59Z</time>
      </trkpt>
      <trkpt lat="42.79611" lon="0.11633">
        <ele>2902</ele>
        <time>2023-06-08T08:02:02Z</time>
      </trkpt>
      <trkpt lat="42.79624" lon="0.11652">
        <ele>2899</ele>
        <time>2023-06-08T08:02:07Z</time>
      </trkpt>
      <trkpt lat="42.79642" lon="0.11657">
        <ele>2894</ele>
        <time>2023-06-08T08:02:42Z</time>
      </trkpt>
      <trkpt lat="42.79656" lon="0.11677">
        <ele>2888</ele>
        <time>2023-06-08T08:03:09Z</time>
      </trkpt>
      <trkpt lat="42.79673" lon="0.1163">
        <ele>2884</ele>
        <time>2023-06-08T08:03:20Z</time>
      </trkpt>
      <trkpt lat="42.79689" lon="0.11611">
        <ele>2880</ele>
        <time>2023-06-08T08:03:24Z</time>
      </trkpt>
      <trkpt lat="42.79708" lon="0.11607">
        <ele>2873</ele>
        <time>2023-06-08T08:03:30Z</time>
      </trkpt>
      <trkpt lat="42.79712" lon="0.11661">
        <ele>2860</ele>
        <time>2023-06-08T08:05:44Z</time>
      </trkpt>
      <trkpt lat="42.7971" lon="0.11661">
        <ele>2864.5</ele>
      </trkpt>
      <trkpt lat="42.79746" lon="0.11742">
        <ele>2843</ele>
      </trkpt>
      <trkpt lat="42.7975" lon="0.11889">
        <ele>2822.5</ele>
      </trkpt>
      <trkpt lat="42.7982" lon="0.1223">
        <ele>2747.1</ele>
      </trkpt>
      <trkpt lat="42.79878" lon="0.12224">
        <ele>2748.9</ele>
      </trkpt>
      <trkpt lat="42.79848" lon="0.12293">
        <ele>2767.8</ele>
      </trkpt>
      <trkpt lat="42.79898" lon="0.123">
        <ele>2780.6</ele>
      </trkpt>
      <trkpt lat="42.79901" lon="0.12336">
        <ele>2796.9</ele>
      </trkpt>
      <trkpt lat="42.79979" lon="0.12374">
        <ele>2811</ele>
        <time>2023-05-05T12:51:27Z</time>
      </trkpt>
      <trkpt lat="42.79985" lon="0.12381">
        <ele>2812</ele>
        <time>2023-05-05T12:52:11Z</time>
      </trkpt>
      <trkpt lat="42.79988" lon="0.12385">
        <ele>2812</ele>
        <time>2023-05-05T12:52:30Z</time>
      </trkpt>
      <trkpt lat="42.79991" lon="0.12384">
        <ele>2810</ele>
        <time>2023-05-05T12:52:48Z</time>
      </trkpt>
      <trkpt lat="42.79988" lon="0.12384">
        <ele>2812</ele>
        <time>2023-05-05T12:53:11Z</time>
      </trkpt>
      <trkpt lat="42.79988" lon="0.12385">
        <ele>2812</ele>
        <time>2023-05-05T12:53:46Z</time>
      </trkpt>
      <trkpt lat="42.79988" lon="0.12385">
        <ele>2812</ele>
        <time>2023-05-05T12:54:01Z</time>
      </trkpt>
      <trkpt lat="42.7999" lon="0.12387">
        <ele>2811</ele>
        <time>2023-05-05T12:55:45Z</time>
      </trkpt>
      <trkpt lat="42.79991" lon="0.12391">
        <ele>2812</ele>
        <time>2023-05-05T12:56:04Z</time>
      </trkpt>
      <trkpt lat="42.79995" lon="0.12394">
        <ele>2811</ele>
        <time>2023-05-05T12:56:17Z</time>
      </trkpt>
      <trkpt lat="42.79991" lon="0.12396">
        <ele>2814</ele>
        <time>2023-05-05T12:56:33Z</time>
      </trkpt>
      <trkpt lat="42.79995" lon="0.124">
        <ele>2813</ele>
        <time>2023-05-05T12:56:51Z</time>
      </trkpt>
      <trkpt lat="42.79998" lon="0.12401">
        <ele>2811</ele>
        <time>2023-05-05T12:57:08Z</time>
      </trkpt>
      <trkpt lat="42.79998" lon="0.12404">
        <ele>2813</ele>
        <time>2023-05-05T12:57:25Z</time>
      </trkpt>
      <trkpt lat="42.79998" lon="0.12407">
        <ele>2814</ele>
        <time>2023-05-05T12:57:42Z</time>
      </trkpt>
      <trkpt lat="42.79999" lon="0.12411">
        <ele>2815</ele>
        <time>2023-05-05T12:57:54Z</time>
      </trkpt>
      <trkpt lat="42.80002" lon="0.12414">
        <ele>2814</ele>
        <time>2023-05-05T12:58:06Z</time>
      </trkpt>
      <trkpt lat="42.80005" lon="0.12418">
        <ele>2813</ele>
        <time>2023-05-05T12:58:17Z</time>
      </trkpt>
      <trkpt lat="42.80007" lon="0.1242">
        <ele>2813</ele>
        <time>2023-05-05T12:58:33Z</time>
      </trkpt>
      <trkpt lat="42.80006" lon="0.12425">
        <ele>2814</ele>
        <time>2023-05-05T12:58:47Z</time>
      </trkpt>
      <trkpt lat="42.80007" lon="0.12424">
        <ele>2813</ele>
        <time>2023-05-05T12:59:10Z</time>
      </trkpt>
      <trkpt lat="42.80007" lon="0.12427">
        <ele>2813</ele>
        <time>2023-05-05T12:59:40Z</time>
      </trkpt>
      <trkpt lat="42.80004" lon="0.12421">
        <ele>2814</ele>
        <time>2023-05-05T13:00:01Z</time>
      </trkpt>
      <trkpt lat="42.80005" lon="0.12423">
        <ele>2814</ele>
        <time>2023-05-05T13:00:38Z</time>
      </trkpt>
      <trkpt lat="42.80005" lon="0.12424">
        <ele>2814</ele>
        <time>2023-05-05T13:01:07Z</time>
      </trkpt>
      <trkpt lat="42.80004" lon="0.12425">
        <ele>2815</ele>
        <time>2023-05-05T13:01:41Z</time>
      </trkpt>
      <trkpt lat="42.80005" lon="0.12423">
        <ele>2814</ele>
        <time>2023-05-05T13:02:19Z</time>
      </trkpt>
      <trkpt lat="42.80005" lon="0.12424">
        <ele>2814</ele>
        <time>2023-05-05T13:02:51Z</time>
      </trkpt>
      <trkpt lat="42.80005" lon="0.12425">
        <ele>2814</ele>
        <time>2023-05-05T13:03:37Z</time>
      </trkpt>
      <trkpt lat="42.80005" lon="0.12425">
        <ele>2814</ele>
        <time>2023-05-05T13:04:20Z</time>
      </trkpt>
      <trkpt lat="42.80006" lon="0.12424">
        <ele>2814</ele>
        <time>2023-05-05T13:05:16Z</time>
      </trkpt>
      <trkpt lat="42.80005" lon="0.12424">
        <ele>2814</ele>
        <time>2023-05-05T13:06:11Z</time>
      </trkpt>
      <trkpt lat="42.80005" lon="0.12424">
        <ele>2814</ele>
        <time>2023-05-05T13:07:05Z</time>
      </trkpt>
      <trkpt lat="42.80005" lon="0.12424">
        <ele>2814</ele>
        <time>2023-05-05T13:07:53Z</time>
      </trkpt>
      <trkpt lat="42.80006" lon="0.12425">
        <ele>2814</ele>
        <time>2023-05-05T13:08:29Z</time>
      </trkpt>
      <trkpt lat="42.80006" lon="0.12424">
        <ele>2814</ele>
        <time>2023-05-05T13:08:43Z</time>
      </trkpt>
      <trkpt lat="42.80007" lon="0.12424">
        <ele>2813</ele>
        <time>2023-05-05T13:09:03Z</time>
      </trkpt>
      <trkpt lat="42.80007" lon="0.12425">
        <ele>2813</ele>
        <time>2023-05-05T13:09:27Z</time>
      </trkpt>
      <trkpt lat="42.80006" lon="0.12427">
        <ele>2814</ele>
        <time>2023-05-05T13:09:48Z</time>
      </trkpt>
      <trkpt lat="42.80009" lon="0.12424">
        <ele>2812</ele>
        <time>2023-05-05T13:10:15Z</time>
      </trkpt>
      <trkpt lat="42.80009" lon="0.12424">
        <ele>2812</ele>
        <time>2023-05-05T13:10:36Z</time>
      </trkpt>
      <trkpt lat="42.80007" lon="0.12426">
        <ele>2813</ele>
        <time>2023-05-05T13:10:59Z</time>
      </trkpt>
      <trkpt lat="42.80007" lon="0.12428">
        <ele>2814</ele>
        <time>2023-05-05T13:11:18Z</time>
      </trkpt>
      <trkpt lat="42.80008" lon="0.12437">
        <ele>2814</ele>
        <time>2023-05-05T13:11:29Z</time>
      </trkpt>
      <trkpt lat="42.80009" lon="0.12443">
        <ele>2815</ele>
        <time>2023-05-05T13:11:40Z</time>
      </trkpt>
      <trkpt lat="42.80007" lon="0.12453">
        <ele>2816</ele>
        <time>2023-05-05T13:11:54Z</time>
      </trkpt>
      <trkpt lat="42.80002" lon="0.12465">
        <ele>2819</ele>
        <time>2023-05-05T13:12:13Z</time>
      </trkpt>
      <trkpt lat="42.80002" lon="0.12469">
        <ele>2819</ele>
        <time>2023-05-05T13:12:28Z</time>
      </trkpt>
      <trkpt lat="42.79993" lon="0.12463">
        <ele>2822</ele>
        <time>2023-05-05T13:12:42Z</time>
      </trkpt>
      <trkpt lat="42.79995" lon="0.12464">
        <ele>2822</ele>
        <time>2023-05-05T13:12:56Z</time>
      </trkpt>
      <trkpt lat="42.79989" lon="0.12461">
        <ele>2824</ele>
        <time>2023-05-05T13:13:10Z</time>
      </trkpt>
      <trkpt lat="42.79991" lon="0.1247">
        <ele>2823</ele>
        <time>2023-05-05T13:13:23Z</time>
      </trkpt>
      <trkpt lat="42.7999" lon="0.1248">
        <ele>2823</ele>
        <time>2023-05-05T13:13:35Z</time>
      </trkpt>
      <trkpt lat="42.79989" lon="0.12481">
        <ele>2823</ele>
        <time>2023-05-05T13:13:36Z</time>
      </trkpt>
      <trkpt lat="42.79987" lon="0.12496">
        <ele>2823</ele>
        <time>2023-05-05T13:13:51Z</time>
      </trkpt>
      <trkpt lat="42.79984" lon="0.12504">
        <ele>2824</ele>
        <time>2023-05-05T13:13:59Z</time>
      </trkpt>
      <trkpt lat="42.79982" lon="0.12512">
        <ele>2824</ele>
        <time>2023-05-05T13:14:05Z</time>
      </trkpt>
      <trkpt lat="42.79975" lon="0.12531">
        <ele>2826</ele>
        <time>2023-05-05T13:14:19Z</time>
      </trkpt>
      <trkpt lat="42.79975" lon="0.12532">
        <ele>2826</ele>
        <time>2023-05-05T13:14:20Z</time>
      </trkpt>
      <trkpt lat="42.79972" lon="0.12545">
        <ele>2828</ele>
        <time>2023-05-05T13:14:29Z</time>
      </trkpt>
      <trkpt lat="42.79971" lon="0.12552">
        <ele>2829</ele>
        <time>2023-05-05T13:14:34Z</time>
      </trkpt>
      <trkpt lat="42.79969" lon="0.12557">
        <ele>2831</ele>
        <time>2023-05-05T13:14:38Z</time>
      </trkpt>
      <trkpt lat="42.79967" lon="0.12572">
        <ele>2833</ele>
        <time>2023-05-05T13:14:52Z</time>
      </trkpt>
      <trkpt lat="42.79966" lon="0.12584">
        <ele>2835</ele>
        <time>2023-05-05T13:15:05Z</time>
      </trkpt>
      <trkpt lat="42.79964" lon="0.12594">
        <ele>2837</ele>
        <time>2023-05-05T13:15:17Z</time>
      </trkpt>
      <trkpt lat="42.79962" lon="0.12604">
        <ele>2838</ele>
        <time>2023-05-05T13:15:29Z</time>
      </trkpt>
      <trkpt lat="42.79959" lon="0.12614">
        <ele>2839</ele>
        <time>2023-05-05T13:15:43Z</time>
      </trkpt>
      <trkpt lat="42.79951" lon="0.12629">
        <ele>2838</ele>
        <time>2023-05-05T13:15:59Z</time>
      </trkpt>
      <trkpt lat="42.79949" lon="0.1263">
        <ele>2838</ele>
        <time>2023-05-05T13:16:05Z</time>
      </trkpt>
      <trkpt lat="42.79937" lon="0.12631">
        <ele>2839</ele>
        <time>2023-05-05T13:16:19Z</time>
      </trkpt>
      <trkpt lat="42.79925" lon="0.12631">
        <ele>2841</ele>
        <time>2023-05-05T13:16:34Z</time>
      </trkpt>
      <trkpt lat="42.79921" lon="0.12628">
        <ele>2842</ele>
        <time>2023-05-05T13:16:44Z</time>
      </trkpt>
      <trkpt lat="42.79915" lon="0.12622">
        <ele>2844</ele>
        <time>2023-05-05T13:16:56Z</time>
      </trkpt>
      <trkpt lat="42.7991" lon="0.12622">
        <ele>2846</ele>
        <time>2023-05-05T13:17:03Z</time>
      </trkpt>
      <trkpt lat="42.79902" lon="0.1262">
        <ele>2849</ele>
        <time>2023-05-05T13:17:12Z</time>
      </trkpt>
      <trkpt lat="42.79893" lon="0.12621">
        <ele>2851</ele>
        <time>2023-05-05T13:17:25Z</time>
      </trkpt>
      <trkpt lat="42.79892" lon="0.1262">
        <ele>2852</ele>
        <time>2023-05-05T13:17:26Z</time>
      </trkpt>
      <trkpt lat="42.79891" lon="0.12619">
        <ele>2852</ele>
        <time>2023-05-05T13:17:28Z</time>
      </trkpt>
      <trkpt lat="42.79894" lon="0.12606">
        <ele>2853</ele>
        <time>2023-05-05T13:17:42Z</time>
      </trkpt>
      <trkpt lat="42.79893" lon="0.12604">
        <ele>2854</ele>
        <time>2023-05-05T13:17:49Z</time>
      </trkpt>
      <trkpt lat="42.79889" lon="0.12597">
        <ele>2855</ele>
        <time>2023-05-05T13:18:05Z</time>
      </trkpt>
      <trkpt lat="42.79883" lon="0.12604">
        <ele>2856</ele>
        <time>2023-05-05T13:18:23Z</time>
      </trkpt>
      <trkpt lat="42.79873" lon="0.12606">
        <ele>2859</ele>
        <time>2023-05-05T13:18:42Z</time>
      </trkpt>
      <trkpt lat="42.79869" lon="0.12606">
        <ele>2860</ele>
        <time>2023-05-05T13:18:48Z</time>
      </trkpt>
      <trkpt lat="42.79859" lon="0.12612">
        <ele>2862</ele>
        <time>2023-05-05T13:19:03Z</time>
      </trkpt>
      <trkpt lat="42.79857" lon="0.12615">
        <ele>2862</ele>
        <time>2023-05-05T13:19:06Z</time>
      </trkpt>
      <trkpt lat="42.7985" lon="0.12625">
        <ele>2864</ele>
        <time>2023-05-05T13:19:22Z</time>
      </trkpt>
      <trkpt lat="42.79842" lon="0.12637">
        <ele>2865</ele>
        <time>2023-05-05T13:19:36Z</time>
      </trkpt>
      <trkpt lat="42.79835" lon="0.12647">
        <ele>2867</ele>
        <time>2023-05-05T13:19:52Z</time>
      </trkpt>
      <trkpt lat="42.7983" lon="0.12659">
        <ele>2869</ele>
        <time>2023-05-05T13:20:07Z</time>
      </trkpt>
      <trkpt lat="42.79824" lon="0.12669">
        <ele>2872</ele>
        <time>2023-05-05T13:20:22Z</time>
      </trkpt>
      <trkpt lat="42.79822" lon="0.12673">
        <ele>2874</ele>
        <time>2023-05-05T13:20:27Z</time>
      </trkpt>
      <trkpt lat="42.79822" lon="0.12673">
        <ele>2874</ele>
        <time>2023-05-05T13:20:27Z</time>
      </trkpt>
      <trkpt lat="42.79818" lon="0.12682">
        <ele>2877</ele>
        <time>2023-05-05T13:20:38Z</time>
      </trkpt>
      <trkpt lat="42.79814" lon="0.12691">
        <ele>2880</ele>
        <time>2023-05-05T13:20:55Z</time>
      </trkpt>
      <trkpt lat="42.79809" lon="0.12698">
        <ele>2882</ele>
        <time>2023-05-05T13:21:09Z</time>
      </trkpt>
      <trkpt lat="42.79806" lon="0.12706">
        <ele>2884</ele>
        <time>2023-05-05T13:21:25Z</time>
      </trkpt>
      <trkpt lat="42.79803" lon="0.12716">
        <ele>2887</ele>
        <time>2023-05-05T13:21:38Z</time>
      </trkpt>
      <trkpt lat="42.79799" lon="0.12722">
        <ele>2889</ele>
        <time>2023-05-05T13:21:52Z</time>
      </trkpt>
      <trkpt lat="42.79794" lon="0.12734">
        <ele>2893</ele>
        <time>2023-05-05T13:22:08Z</time>
      </trkpt>
      <trkpt lat="42.7979" lon="0.12744">
        <ele>2896</ele>
        <time>2023-05-05T13:22:23Z</time>
      </trkpt>
      <trkpt lat="42.79787" lon="0.12748">
        <ele>2898</ele>
        <time>2023-05-05T13:22:40Z</time>
      </trkpt>
      <trkpt lat="42.79786" lon="0.1275">
        <ele>2899</ele>
        <time>2023-05-05T13:22:56Z</time>
      </trkpt>
      <trkpt lat="42.79777" lon="0.12746">
        <ele>2902</ele>
        <time>2023-05-05T13:23:28Z</time>
      </trkpt>
      <trkpt lat="42.79777" lon="0.12743">
        <ele>2902.4</ele>
      </trkpt>
      <trkpt lat="42.79743" lon="0.12732">
        <ele>2907.7</ele>
      </trkpt>
      <trkpt lat="42.7974" lon="0.12733">
        <ele>2915</ele>
        <time>2023-06-08T09:25:39Z</time>
      </trkpt>
      <trkpt lat="42.79722" lon="0.12736">
        <ele>2918</ele>
        <time>2023-06-08T09:26:04Z</time>
      </trkpt>
      <trkpt lat="42.79707" lon="0.1275">
        <ele>2920</ele>
        <time>2023-06-08T09:26:39Z</time>
      </trkpt>
      <trkpt lat="42.79714" lon="0.12773">
        <ele>2925</ele>
        <time>2023-06-08T09:27:17Z</time>
      </trkpt>
      <trkpt lat="42.79688" lon="0.12808">
        <ele>2952</ele>
        <time>2023-06-08T09:30:13Z</time>
      </trkpt>
      <trkpt lat="42.79682" lon="0.12832">
        <ele>2956</ele>
        <time>2023-06-08T09:31:30Z</time>
      </trkpt>
      <trkpt lat="42.79699" lon="0.12876">
        <ele>2976</ele>
        <time>2023-06-08T09:34:58Z</time>
      </trkpt>
      <trkpt lat="42.797" lon="0.129">
        <ele>2991</ele>
        <time>2023-06-08T09:41:37Z</time>
      </trkpt>
      <trkpt lat="42.79716" lon="0.12946">
        <ele>3012</ele>
        <time>2023-06-08T09:46:50Z</time>
      </trkpt>
      <trkpt lat="42.79731" lon="0.12933">
        <ele>3005</ele>
        <time>2023-06-08T10:21:42Z</time>
      </trkpt>
      <trkpt lat="42.79742" lon="0.12955">
        <ele>2994</ele>
        <time>2023-06-08T10:22:00Z</time>
      </trkpt>
      <trkpt lat="42.79753" lon="0.13006">
        <ele>2975</ele>
        <time>2023-06-08T10:22:56Z</time>
      </trkpt>
      <trkpt lat="42.79721" lon="0.13069">
        <ele>2956</ele>
        <time>2023-06-08T10:26:59Z</time>
      </trkpt>
      <trkpt lat="42.7974" lon="0.13075">
        <ele>2943</ele>
        <time>2023-06-08T10:29:23Z</time>
      </trkpt>
      <trkpt lat="42.79749" lon="0.13099">
        <ele>2932</ele>
        <time>2023-06-08T10:29:39Z</time>
      </trkpt>
      <trkpt lat="42.79767" lon="0.13085">
        <ele>2924</ele>
        <time>2023-06-08T10:29:49Z</time>
      </trkpt>
      <trkpt lat="42.79775" lon="0.1311">
        <ele>2916</ele>
        <time>2023-06-08T10:29:57Z</time>
      </trkpt>
      <trkpt lat="42.79792" lon="0.131">
        <ele>2909</ele>
        <time>2023-06-08T10:30:06Z</time>
      </trkpt>
      <trkpt lat="42.79805" lon="0.1308">
        <ele>2904</ele>
        <time>2023-06-08T10:30:12Z</time>
      </trkpt>
      <trkpt lat="42.79819" lon="0.13098">
        <ele>2893</ele>
        <time>2023-06-08T10:30:22Z</time>
      </trkpt>
      <trkpt lat="42.79899" lon="0.13025">
        <ele>2866</ele>
        <time>2023-06-08T10:31:37Z</time>
      </trkpt>
      <trkpt lat="42.79917" lon="0.13019">
        <ele>2856</ele>
        <time>2023-06-08T10:32:29Z</time>
      </trkpt>
      <trkpt lat="42.7992" lon="0.13044">
        <ele>2845</ele>
        <time>2023-06-08T10:32:44Z</time>
      </trkpt>
      <trkpt lat="42.7991" lon="0.13094">
        <ele>2829</ele>
        <time>2023-06-08T10:33:20Z</time>
      </trkpt>
      <trkpt lat="42.79928" lon="0.13085">
        <ele>2824</ele>
        <time>2023-06-08T10:33:26Z</time>
      </trkpt>
      <trkpt lat="42.79962" lon="0.13102">
        <ele>2798</ele>
        <time>2023-06-08T10:34:15Z</time>
      </trkpt>
      <trkpt lat="42.79974" lon="0.13135">
        <ele>2782</ele>
        <time>2023-06-08T10:34:44Z</time>
      </trkpt>
      <trkpt lat="42.79942" lon="0.13204">
        <ele>2761</ele>
        <time>2023-06-08T10:35:37Z</time>
      </trkpt>
      <trkpt lat="42.79961" lon="0.13209">
        <ele>2752</ele>
        <time>2023-06-08T10:35:47Z</time>
      </trkpt>
      <trkpt lat="42.7995" lon="0.13252">
        <ele>2733</ele>
        <time>2023-06-08T10:36:38Z</time>
      </trkpt>
      <trkpt lat="42.79981" lon="0.13321">
        <ele>2703</ele>
        <time>2023-06-08T10:37:05Z</time>
      </trkpt>
      <trkpt lat="42.80002" lon="0.13325">
        <ele>2693</ele>
        <time>2023-06-08T10:37:14Z</time>
      </trkpt>
      <trkpt lat="42.80019" lon="0.13337">
        <ele>2681</ele>
        <time>2023-06-08T10:39:33Z</time>
      </trkpt>
      <trkpt lat="42.80027" lon="0.1336">
        <ele>2664</ele>
        <time>2023-06-08T10:40:04Z</time>
      </trkpt>
      <trkpt lat="42.80032" lon="0.13412">
        <ele>2653</ele>
        <time>2023-06-08T10:40:20Z</time>
      </trkpt>
      <trkpt lat="42.80051" lon="0.13407">
        <ele>2641</ele>
        <time>2023-06-08T10:41:13Z</time>
      </trkpt>
      <trkpt lat="42.80088" lon="0.13466">
        <ele>2606</ele>
        <time>2023-06-08T10:44:31Z</time>
      </trkpt>
      <trkpt lat="42.80092" lon="0.13492">
        <ele>2597</ele>
        <time>2023-06-08T10:44:39Z</time>
      </trkpt>
      <trkpt lat="42.80078" lon="0.13507">
        <ele>2568</ele>
        <time>2023-06-08T10:45:39Z</time>
      </trkpt>
      <trkpt lat="42.80084" lon="0.13531">
        <ele>2563</ele>
        <time>2023-06-08T10:45:50Z</time>
      </trkpt>
      <trkpt lat="42.80083" lon="0.13557">
        <ele>2565</ele>
        <time>2023-06-08T10:45:57Z</time>
      </trkpt>
      <trkpt lat="42.80118" lon="0.13572">
        <ele>2550</ele>
        <time>2023-06-08T10:46:59Z</time>
      </trkpt>
      <trkpt lat="42.80138" lon="0.13617">
        <ele>2529</ele>
        <time>2023-06-08T10:47:25Z</time>
      </trkpt>
      <trkpt lat="42.80156" lon="0.13618">
        <ele>2511</ele>
        <time>2023-06-08T10:49:16Z</time>
      </trkpt>
      <trkpt lat="42.8017" lon="0.13636">
        <ele>2509</ele>
        <time>2023-06-08T10:49:22Z</time>
      </trkpt>
      <trkpt lat="42.80215" lon="0.13646">
        <ele>2498</ele>
        <time>2023-06-08T10:49:39Z</time>
      </trkpt>
      <trkpt lat="42.80237" lon="0.1364">
        <ele>2488</ele>
        <time>2023-06-08T10:49:48Z</time>
      </trkpt>
      <trkpt lat="42.8025" lon="0.13658">
        <ele>2484</ele>
        <time>2023-06-08T10:49:52Z</time>
      </trkpt>
      <trkpt lat="42.80292" lon="0.1366">
        <ele>2471</ele>
        <time>2023-06-08T10:50:04Z</time>
      </trkpt>
      <trkpt lat="42.8031" lon="0.1365">
        <ele>2465</ele>
        <time>2023-06-08T10:50:13Z</time>
      </trkpt>
      <trkpt lat="42.80325" lon="0.1367">
        <ele>2458</ele>
        <time>2023-06-08T10:50:17Z</time>
      </trkpt>
      <trkpt lat="42.80346" lon="0.13663">
        <ele>2450</ele>
        <time>2023-06-08T10:50:22Z</time>
      </trkpt>
      <trkpt lat="42.80361" lon="0.13685">
        <ele>2444</ele>
        <time>2023-06-08T10:50:27Z</time>
      </trkpt>
      <trkpt lat="42.8038" lon="0.1368">
        <ele>2439</ele>
        <time>2023-06-08T10:50:31Z</time>
      </trkpt>
      <trkpt lat="42.80386" lon="0.13708">
        <ele>2435</ele>
        <time>2023-06-08T10:50:36Z</time>
      </trkpt>
      <trkpt lat="42.80404" lon="0.13715">
        <ele>2429</ele>
        <time>2023-06-08T10:50:41Z</time>
      </trkpt>
      <trkpt lat="42.80421" lon="0.13733">
        <ele>2426</ele>
        <time>2023-06-08T10:50:47Z</time>
      </trkpt>
      <trkpt lat="42.80429" lon="0.13757">
        <ele>2422</ele>
        <time>2023-06-08T10:50:51Z</time>
      </trkpt>
      <trkpt lat="42.80473" lon="0.13805">
        <ele>2409</ele>
        <time>2023-06-08T10:51:09Z</time>
      </trkpt>
      <trkpt lat="42.80489" lon="0.13853">
        <ele>2404</ele>
        <time>2023-06-08T10:51:25Z</time>
      </trkpt>
      <trkpt lat="42.8048" lon="0.13875">
        <ele>2390</ele>
        <time>2023-06-08T11:02:58Z</time>
      </trkpt>
      <trkpt lat="42.80499" lon="0.13877">
        <ele>2394</ele>
        <time>2023-06-08T11:11:59Z</time>
      </trkpt>
      <trkpt lat="42.80516" lon="0.13887">
        <ele>2395</ele>
        <time>2023-06-08T11:12:26Z</time>
      </trkpt>
      <trkpt lat="42.80534" lon="0.13961">
        <ele>2390</ele>
        <time>2023-06-08T11:13:23Z</time>
      </trkpt>
      <trkpt lat="42.80545" lon="0.13981">
        <ele>2389</ele>
        <time>2023-06-08T11:13:49Z</time>
      </trkpt>
      <trkpt lat="42.80654" lon="0.14068">
        <ele>2351</ele>
        <time>2023-06-08T11:17:18Z</time>
      </trkpt>
      <trkpt lat="42.80708" lon="0.14065">
        <ele>2322</ele>
        <time>2023-06-08T11:20:15Z</time>
      </trkpt>
      <trkpt lat="42.80712" lon="0.14089">
        <ele>2311</ele>
        <time>2023-06-08T11:21:16Z</time>
      </trkpt>
      <trkpt lat="42.80706" lon="0.14138">
        <ele>2294</ele>
        <time>2023-06-08T11:22:29Z</time>
      </trkpt>
      <trkpt lat="42.80709" lon="0.14189">
        <ele>2283</ele>
        <time>2023-06-08T11:23:29Z</time>
      </trkpt>
      <trkpt lat="42.80698" lon="0.14209">
        <ele>2277</ele>
        <time>2023-06-08T11:23:56Z</time>
      </trkpt>
      <trkpt lat="42.80699" lon="0.14234">
        <ele>2266</ele>
        <time>2023-06-08T11:24:42Z</time>
      </trkpt>
      <trkpt lat="42.80688" lon="0.14255">
        <ele>2262</ele>
        <time>2023-06-08T11:25:35Z</time>
      </trkpt>
      <trkpt lat="42.8072" lon="0.14278">
        <ele>2243</ele>
        <time>2023-06-08T11:27:07Z</time>
      </trkpt>
      <trkpt lat="42.80738" lon="0.14273">
        <ele>2235</ele>
        <time>2023-06-08T11:27:41Z</time>
      </trkpt>
      <trkpt lat="42.80797" lon="0.14331">
        <ele>2209</ele>
        <time>2023-06-08T11:29:37Z</time>
      </trkpt>
      <trkpt lat="42.80816" lon="0.14374">
        <ele>2197</ele>
        <time>2023-06-08T11:30:41Z</time>
      </trkpt>
      <trkpt lat="42.80854" lon="0.14429">
        <ele>2194</ele>
        <time>2023-06-08T11:32:15Z</time>
      </trkpt>
      <trkpt lat="42.80888" lon="0.14448">
        <ele>2182</ele>
        <time>2023-06-08T11:33:27Z</time>
      </trkpt>
      <trkpt lat="42.80903" lon="0.14463">
        <ele>2179</ele>
        <time>2023-06-08T11:33:50Z</time>
      </trkpt>
      <trkpt lat="42.80938" lon="0.14472">
        <ele>2173</ele>
        <time>2023-06-08T11:34:32Z</time>
      </trkpt>
      <trkpt lat="42.80955" lon="0.14463">
        <ele>2166</ele>
        <time>2023-06-08T11:35:04Z</time>
      </trkpt>
      <trkpt lat="42.80974" lon="0.14466">
        <ele>2164</ele>
        <time>2023-06-08T11:35:27Z</time>
      </trkpt>
      <trkpt lat="42.81026" lon="0.14493">
        <ele>2162</ele>
        <time>2023-06-08T11:36:24Z</time>
      </trkpt>
      <trkpt lat="42.81072" lon="0.14538">
        <ele>2157</ele>
        <time>2023-06-08T11:37:16Z</time>
      </trkpt>
      <trkpt lat="42.81121" lon="0.14571">
        <ele>2151</ele>
        <time>2023-06-08T11:38:02Z</time>
      </trkpt>
      <trkpt lat="42.81166" lon="0.14616">
        <ele>2146</ele>
        <time>2023-06-08T11:38:52Z</time>
      </trkpt>
      <trkpt lat="42.81177" lon="0.14636">
        <ele>2144</ele>
        <time>2023-06-08T11:39:07Z</time>
      </trkpt>
      <trkpt lat="42.81195" lon="0.14645">
        <ele>2144</ele>
        <time>2023-06-08T11:39:22Z</time>
      </trkpt>
      <trkpt lat="42.81285" lon="0.14658">
        <ele>2135</ele>
        <time>2023-06-08T11:40:44Z</time>
      </trkpt>
      <trkpt lat="42.81334" lon="0.14627">
        <ele>2124</ele>
        <time>2023-06-08T11:41:43Z</time>
      </trkpt>
      <trkpt lat="42.81388" lon="0.14646">
        <ele>2115</ele>
        <time>2023-06-08T11:42:45Z</time>
      </trkpt>
      <trkpt lat="42.81442" lon="0.14641">
        <ele>2105</ele>
        <time>2023-06-08T11:43:48Z</time>
      </trkpt>
      <trkpt lat="42.81494" lon="0.14663">
        <ele>2093</ele>
        <time>2023-06-08T11:45:17Z</time>
      </trkpt>
      <trkpt lat="42.81509" lon="0.14677">
        <ele>2089</ele>
        <time>2023-06-08T11:45:37Z</time>
      </trkpt>
      <trkpt lat="42.81544" lon="0.14658">
        <ele>2077</ele>
        <time>2023-06-08T11:46:23Z</time>
      </trkpt>
    </trkseg>
  </trk>
</gpx>